Observation data for Persimmon Gap on 06/20/2019      Previous  Date       Current Mesonet Observations  Soil Data  Daily Summary Page  Observations in Plain Language
KPG1 200500Z 24000KT 28/16 A2987 RMK A01 T02810157  RH  047%=      5-min Rain = 0
KPG1 200501Z 00000KT 28/16 A2987 RMK A01 T02810157  RH  047%=      5-min Rain = 0
KPG1 200502Z 24001KT 28/16 A2987 RMK A01 T02810164  RH  049%=      5-min Rain = 0
KPG1 200503Z 26000KT 28/16 A2987 RMK A01 T02790159  RH  048%=      5-min Rain = 0
KPG1 200504Z 26000KT 28/16 A2987 RMK A01 T02790158  RH  048%=      5-min Rain = 0
KPG1 200505Z 24001KT 28/16 A2987 RMK A01 T02790159  RH  048%=      5-min Rain = 0
KPG1 200506Z 26001KT 28/17 A2987 RMK A01 T02770172  RH  053%=      5-min Rain = 0
KPG1 200507Z 25001KT 27/18 A2987 RMK A01 T02700179  RH  057%=      5-min Rain = 0
KPG1 200508Z 26001KT 26/18 A2987 RMK A01 T02630184  RH  062%=      5-min Rain = 0
KPG1 200509Z 24001KT 26/18 A2987 RMK A01 T02580180  RH  062%=      5-min Rain = 0
KPG1 200510Z 24001KT 26/18 A2987 RMK A01 T02570175  RH  060%=      5-min Rain = 0
KPG1 200511Z 25001KT 26/17 A2987 RMK A01 T02570169  RH  059%=      5-min Rain = 0
KPG1 200512Z 24001KT 26/17 A2987 RMK A01 T02570169  RH  058%=      5-min Rain = 0
KPG1 200513Z 21001KT 26/17 A2987 RMK A01 T02590167  RH  057%=      5-min Rain = 0
KPG1 200514Z 24001KT 26/16 A2987 RMK A01 T02620164  RH  055%=      5-min Rain = 0
KPG1 200515Z 24002KT 27/16 A2987 RMK A01 T02650164  RH  054%=      5-min Rain = 0
KPG1 200516Z 22002KT 27/16 A2987 RMK A01 T02680163  RH  052%=      5-min Rain = 0
KPG1 200517Z 21002KT 27/16 A2987 RMK A01 T02710164  RH  052%=      5-min Rain = 0
KPG1 200518Z 23002KT 27/16 A2987 RMK A01 T02730163  RH  051%=      5-min Rain = 0
KPG1 200519Z 20002KT 27/16 A2987 RMK A01 T02730161  RH  050%=      5-min Rain = 0
KPG1 200520Z 22002KT 27/16 A2987 RMK A01 T02740160  RH  050%=      5-min Rain = 0
KPG1 200521Z 21002KT 28/16 A2987 RMK A01 T02760159  RH  049%=      5-min Rain = 0
KPG1 200522Z 21003KT 28/16 A2987 RMK A01 T02780159  RH  048%=      5-min Rain = 0
KPG1 200523Z 22003KT 28/16 A2987 RMK A01 T02790158  RH  048%=      5-min Rain = 0
KPG1 200524Z 21003KT 28/16 A2987 RMK A01 T02800161  RH  048%=      5-min Rain = 0
KPG1 200525Z 22003KT 28/16 A2987 RMK A01 T02800161  RH  048%=      5-min Rain = 0
KPG1 200526Z 21002KT 28/16 A2987 RMK A01 T02790164  RH  050%=      5-min Rain = 0
KPG1 200527Z 21002KT 28/16 A2987 RMK A01 T02770163  RH  050%=      5-min Rain = 0
KPG1 200528Z 19002KT 28/16 A2987 RMK A01 T02770160  RH  049%=      5-min Rain = 0
KPG1 200529Z 20002KT 28/16 A2987 RMK A01 T02770160  RH  049%=      5-min Rain = 0
KPG1 200530Z 22002KT 28/16 A2987 RMK A01 T02770160  RH  049%=      5-min Rain = 0
KPG1 200531Z 21002KT 28/16 A2987 RMK A01 T02780162  RH  049%=      5-min Rain = 0
KPG1 200532Z 20003KT 28/16 A2987 RMK A01 T02770164  RH  050%=      5-min Rain = 0
KPG1 200533Z 19003KT 28/16 A2987 RMK A01 T02760164  RH  051%=      5-min Rain = 0
KPG1 200534Z 19003KT 28/17 A2988 RMK A01 T02750165  RH  051%=      5-min Rain = 0
KPG1 200535Z 20003KT 27/17 A2988 RMK A01 T02740165  RH  051%=      5-min Rain = 0
KPG1 200536Z 21002KT 27/17 A2987 RMK A01 T02730167  RH  052%=      5-min Rain = 0
KPG1 200537Z 23003KT 27/17 A2987 RMK A01 T02720168  RH  053%=      5-min Rain = 0
KPG1 200538Z 21003KT 27/17 A2987 RMK A01 T02710168  RH  053%=      5-min Rain = 0
KPG1 200539Z 21003KT 27/17 A2987 RMK A01 T02690171  RH  055%=      5-min Rain = 0
KPG1 200540Z 21003KT 27/18 A2987 RMK A01 T02670175  RH  057%=      5-min Rain = 0
KPG1 200541Z 22003KT 26/18 A2987 RMK A01 T02640178  RH  059%=      5-min Rain = 0
KPG1 200542Z 22003KT 26/18 A2987 RMK A01 T02610178  RH  060%=      5-min Rain = 0
KPG1 200543Z 22003KT 26/18 A2987 RMK A01 T02580181  RH  062%=      5-min Rain = 0
KPG1 200544Z 21003KT 26/18 A2987 RMK A01 T02550183  RH  064%=      5-min Rain = 0
KPG1 200545Z 22002KT 25/19 A2987 RMK A01 T02540185  RH  066%=      5-min Rain = 0
KPG1 200546Z 22003KT 25/19 A2987 RMK A01 T02520185  RH  066%=      5-min Rain = 0
KPG1 200547Z 23003KT 25/18 A2987 RMK A01 T02510182  RH  066%=      5-min Rain = 0
KPG1 200548Z 22003KT 25/18 A2987 RMK A01 T02500182  RH  066%=      5-min Rain = 0
KPG1 200549Z 22003KT 25/18 A2987 RMK A01 T02500184  RH  067%=      5-min Rain = 0
KPG1 200550Z 21003KT 25/19 A2987 RMK A01 T02500186  RH  068%=      5-min Rain = 0
KPG1 200551Z 22003KT 25/19 A2988 RMK A01 T02490186  RH  068%=      5-min Rain = 0
KPG1 200552Z 22002KT 25/19 A2988 RMK A01 T02490187  RH  068%=      5-min Rain = 0
KPG1 200553Z 23002KT 25/19 A2988 RMK A01 T02490188  RH  069%=      5-min Rain = 0
KPG1 200554Z 23002KT 25/19 A2988 RMK A01 T02480188  RH  069%=      5-min Rain = 0
KPG1 200555Z 23002KT 25/19 A2988 RMK A01 T02470187  RH  069%=      5-min Rain = 0
KPG1 200556Z 23002KT 25/19 A2988 RMK A01 T02470187  RH  069%=      5-min Rain = 0
KPG1 200557Z 23002KT 25/19 A2988 RMK A01 T02470188  RH  070%=      5-min Rain = 0
KPG1 200558Z 23002KT 25/19 A2988 RMK A01 T02470188  RH  070%=      5-min Rain = 0
KPG1 200559Z 24001KT 25/19 A2988 RMK A01 T02470189  RH  070%=      5-min Rain = 0
KPG1 200600Z 25001KT 25/19 A2988 RMK A01 T02460190  RH  071%=      5-min Rain = 0
KPG1 200601Z 27001KT 24/19 A2988 RMK A01 T02440192  RH  073%=      5-min Rain = 0
KPG1 200602Z 27000KT 24/19 A2988 RMK A01 T02420192  RH  074%=      5-min Rain = 0
KPG1 200603Z 00000KT 24/19 A2988 RMK A01 T02400193  RH  075%=      5-min Rain = 0
KPG1 200604Z 00000KT 24/19 A2988 RMK A01 T02380193  RH  076%=      5-min Rain = 0
KPG1 200605Z 33000KT 24/19 A2988 RMK A01 T02360192  RH  076%=      5-min Rain = 0
KPG1 200606Z 32001KT 24/20 A2988 RMK A01 T02360195  RH  078%=      5-min Rain = 0
KPG1 200607Z 30001KT 24/19 A2988 RMK A01 T02350192  RH  077%=      5-min Rain = 0
KPG1 200608Z 27001KT 24/19 A2988 RMK A01 T02360191  RH  076%=      5-min Rain = 0
KPG1 200609Z 26001KT 24/19 A2988 RMK A01 T02380192  RH  076%=      5-min Rain = 0
KPG1 200610Z 34001KT 24/19 A2988 RMK A01 T02390193  RH  076%=      5-min Rain = 0
KPG1 200611Z 35001KT 24/20 A2988 RMK A01 T02380195  RH  077%=      5-min Rain = 0
KPG1 200612Z 32001KT 24/19 A2988 RMK A01 T02350193  RH  078%=      5-min Rain = 0
KPG1 200613Z 32000KT 23/19 A2988 RMK A01 T02340189  RH  076%=      5-min Rain = 0
KPG1 200614Z 04002KT 23/19 A2988 RMK A01 T02340193  RH  078%=      5-min Rain = 0
KPG1 200615Z 04003KT 23/19 A2988 RMK A01 T02330194  RH  078%=      5-min Rain = 0
KPG1 200616Z 05003KT 23/19 A2987 RMK A01 T02330194  RH  079%=      5-min Rain = 0
KPG1 200617Z 06004KT 23/19 A2987 RMK A01 T02320194  RH  079%=      5-min Rain = 0
KPG1 200618Z 04004KT 23/20 A2987 RMK A01 T02320195  RH  080%=      5-min Rain = 0
KPG1 200619Z 04004KT 23/19 A2987 RMK A01 T02320194  RH  079%=      5-min Rain = 0
KPG1 200620Z 04004KT 23/20 A2987 RMK A01 T02330197  RH  080%=      5-min Rain = 0
KPG1 200621Z 05004KT 23/20 A2987 RMK A01 T02320197  RH  081%=      5-min Rain = 0
KPG1 200622Z 03004KT 23/20 A2987 RMK A01 T02310197  RH  081%=      5-min Rain = 0
KPG1 200623Z 03003KT 23/20 A2987 RMK A01 T02310196  RH  080%=      5-min Rain = 0
KPG1 200624Z 05003KT 23/20 A2987 RMK A01 T02330195  RH  079%=      5-min Rain = 0
KPG1 200625Z 06003KT 23/20 A2987 RMK A01 T02340195  RH  079%=      5-min Rain = 0
KPG1 200626Z 05003KT 24/19 A2987 RMK A01 T02350194  RH  077%=      5-min Rain = 0
KPG1 200627Z 08003KT 24/19 A2987 RMK A01 T02370194  RH  077%=      5-min Rain = 0
KPG1 200628Z 10002KT 24/19 A2987 RMK A01 T02380193  RH  076%=      5-min Rain = 0
KPG1 200629Z 11001KT 24/19 A2987 RMK A01 T02390192  RH  075%=      5-min Rain = 0
KPG1 200630Z 14001KT 24/19 A2987 RMK A01 T02390194  RH  076%=      5-min Rain = 0
KPG1 200631Z 13000KT 24/19 A2987 RMK A01 T02390193  RH  075%=      5-min Rain = 0
KPG1 200632Z 00000KT 24/19 A2987 RMK A01 T02390193  RH  075%=      5-min Rain = 0
KPG1 200633Z 00000KT 24/19 A2987 RMK A01 T02390190  RH  074%=      5-min Rain = 0
KPG1 200634Z 16000KT 24/19 A2987 RMK A01 T02410188  RH  072%=      5-min Rain = 0
KPG1 200635Z 15001KT 24/19 A2987 RMK A01 T02440185  RH  070%=      5-min Rain = 0
KPG1 200636Z 17002KT 25/18 A2987 RMK A01 T02470183  RH  068%=      5-min Rain = 0
KPG1 200637Z 14002KT 25/17 A2987 RMK A01 T02490174  RH  063%=      5-min Rain = 0
KPG1 200638Z 14003KT 25/17 A2987 RMK A01 T02520167  RH  059%=      5-min Rain = 0
KPG1 200639Z 17002KT 26/17 A2987 RMK A01 T02580168  RH  057%=      5-min Rain = 0
KPG1 200640Z 18002KT 26/18 A2987 RMK A01 T02610178  RH  060%=      5-min Rain = 0
KPG1 200641Z 19002KT 26/19 A2987 RMK A01 T02600189  RH  065%=      5-min Rain = 0
KPG1 200642Z 19001KT 25/19 A2987 RMK A01 T02540192  RH  069%=      5-min Rain = 0
KPG1 200643Z 16001KT 25/19 A2987 RMK A01 T02470191  RH  071%=      5-min Rain = 0
KPG1 200644Z 12000KT 24/19 A2987 RMK A01 T02430191  RH  073%=      5-min Rain = 0
KPG1 200645Z 15000KT 24/19 A2987 RMK A01 T02400192  RH  074%=      5-min Rain = 0
KPG1 200646Z 00000KT 24/19 A2987 RMK A01 T02380192  RH  075%=      5-min Rain = 0
KPG1 200647Z 23001KT 24/19 A2987 RMK A01 T02370188  RH  074%=      5-min Rain = 0
KPG1 200648Z 22001KT 24/19 A2987 RMK A01 T02370185  RH  072%=      5-min Rain = 0
KPG1 200649Z 21001KT 24/18 A2987 RMK A01 T02370183  RH  072%=      5-min Rain = 0
KPG1 200650Z 22002KT 24/18 A2987 RMK A01 T02390181  RH  070%=      5-min Rain = 0
KPG1 200651Z 22002KT 24/18 A2987 RMK A01 T02400183  RH  070%=      5-min Rain = 0
KPG1 200652Z 21003KT 24/18 A2987 RMK A01 T02420182  RH  069%=      5-min Rain = 0
KPG1 200653Z 21003KT 24/18 A2987 RMK A01 T02430183  RH  069%=      5-min Rain = 0
KPG1 200654Z 20004KT 25/19 A2987 RMK A01 T02450186  RH  070%=      5-min Rain = 0
KPG1 200655Z 21003KT 25/19 A2987 RMK A01 T02450187  RH  070%=      5-min Rain = 0
KPG1 200656Z 21003KT 25/19 A2988 RMK A01 T02450188  RH  071%=      5-min Rain = 0
KPG1 200657Z 20004KT 24/19 A2988 RMK A01 T02440190  RH  072%=      5-min Rain = 0
KPG1 200658Z 20004KT 24/19 A2988 RMK A01 T02430191  RH  073%=      5-min Rain = 0
KPG1 200659Z 20005KT 24/19 A2988 RMK A01 T02420191  RH  073%=      5-min Rain = 0
KPG1 200700Z 19006KT 24/19 A2988 RMK A01 T02410193  RH  074%=      5-min Rain = 0
KPG1 200701Z 18007KT 24/20 A2988 RMK A01 T02400195  RH  076%=      5-min Rain = 0
KPG1 200702Z 18007KT 24/20 A2988 RMK A01 T02380196  RH  078%=      5-min Rain = 0
KPG1 200703Z 18006KT 24/20 A2988 RMK A01 T02360197  RH  079%=      5-min Rain = 0
KPG1 200704Z 19005KT 24/20 A2988 RMK A01 T02350198  RH  079%=      5-min Rain = 0
KPG1 200705Z 18006KT 24/20 A2988 RMK A01 T02360198  RH  080%=      5-min Rain = 0
KPG1 200706Z 19003KT 24/20 A2988 RMK A01 T02350197  RH  079%=      5-min Rain = 0
KPG1 200707Z 21004KT 24/20 A2988 RMK A01 T02350198  RH  079%=      5-min Rain = 0
KPG1 200708Z 22003KT 23/20 A2988 RMK A01 T02340197  RH  080%=      5-min Rain = 0
KPG1 200709Z 22004KT 23/20 A2988 RMK A01 T02340196  RH  079%=      5-min Rain = 0
KPG1 200710Z 23003KT 23/20 A2988 RMK A01 T02340195  RH  079%=      5-min Rain = 0
KPG1 200711Z 23002KT 23/20 A2988 RMK A01 T02340195  RH  078%=      5-min Rain = 0
KPG1 200712Z 23002KT 24/19 A2988 RMK A01 T02350194  RH  078%=      5-min Rain = 0
KPG1 200713Z 22001KT 24/19 A2988 RMK A01 T02350194  RH  077%=      5-min Rain = 0
KPG1 200714Z 26002KT 24/19 A2988 RMK A01 T02360194  RH  077%=      5-min Rain = 0
KPG1 200715Z 23002KT 24/19 A2988 RMK A01 T02360193  RH  077%=      5-min Rain = 0
KPG1 200716Z 16001KT 24/19 A2988 RMK A01 T02360192  RH  076%=      5-min Rain = 0
KPG1 200717Z 23001KT 24/19 A2988 RMK A01 T02370191  RH  075%=      5-min Rain = 0
KPG1 200718Z 21003KT 24/19 A2988 RMK A01 T02380191  RH  075%=      5-min Rain = 0
KPG1 200719Z 23003KT 24/19 A2988 RMK A01 T02380190  RH  075%=      5-min Rain = 0
KPG1 200720Z 22003KT 24/19 A2988 RMK A01 T02390190  RH  074%=      5-min Rain = 0
KPG1 200721Z 23003KT 24/19 A2988 RMK A01 T02390191  RH  075%=      5-min Rain = 0
KPG1 200722Z 24003KT 24/19 A2988 RMK A01 T02390190  RH  074%=      5-min Rain = 0
KPG1 200723Z 23003KT 24/19 A2988 RMK A01 T02390190  RH  074%=      5-min Rain = 0
KPG1 200724Z 24002KT 24/19 A2988 RMK A01 T02400190  RH  074%=      5-min Rain = 0
KPG1 200725Z 25002KT 24/19 A2988 RMK A01 T02400191  RH  074%=      5-min Rain = 0
KPG1 200726Z 26003KT 24/19 A2987 RMK A01 T02400191  RH  074%=      5-min Rain = 0
KPG1 200727Z 25003KT 24/19 A2988 RMK A01 T02410191  RH  074%=      5-min Rain = 0
KPG1 200728Z 23003KT 24/19 A2988 RMK A01 T02410192  RH  074%=      5-min Rain = 0
KPG1 200729Z 26003KT 24/19 A2988 RMK A01 T02400192  RH  074%=      5-min Rain = 0
KPG1 200730Z 24003KT 24/19 A2987 RMK A01 T02400193  RH  075%=      5-min Rain = 0
KPG1 200731Z 24003KT 24/19 A2988 RMK A01 T02400193  RH  075%=      5-min Rain = 0
KPG1 200732Z 23004KT 24/19 A2988 RMK A01 T02400191  RH  074%=      5-min Rain = 0
KPG1 200733Z 24003KT 24/19 A2988 RMK A01 T02420192  RH  074%=      5-min Rain = 0
KPG1 200734Z 22003KT 24/19 A2988 RMK A01 T02420192  RH  074%=      5-min Rain = 0
KPG1 200735Z 24003KT 24/19 A2988 RMK A01 T02420191  RH  073%=      5-min Rain = 0
KPG1 200736Z 25003KT 24/19 A2988 RMK A01 T02430191  RH  072%=      5-min Rain = 0
KPG1 200737Z 25003KT 24/19 A2987 RMK A01 T02440190  RH  072%=      5-min Rain = 0
KPG1 200738Z 25003KT 25/19 A2987 RMK A01 T02450189  RH  071%=      5-min Rain = 0
KPG1 200739Z 23003KT 25/19 A2987 RMK A01 T02460188  RH  070%=      5-min Rain = 0
KPG1 200740Z 23003KT 25/19 A2987 RMK A01 T02470187  RH  069%=      5-min Rain = 0
KPG1 200741Z 20003KT 25/19 A2988 RMK A01 T02490187  RH  068%=      5-min Rain = 0
KPG1 200742Z 19003KT 25/19 A2988 RMK A01 T02510185  RH  067%=      5-min Rain = 0
KPG1 200743Z 21002KT 25/19 A2988 RMK A01 T02520191  RH  069%=      5-min Rain = 0
KPG1 200744Z 19002KT 25/19 A2988 RMK A01 T02500188  RH  068%=      5-min Rain = 0
KPG1 200745Z 19003KT 25/18 A2988 RMK A01 T02500184  RH  067%=      5-min Rain = 0
KPG1 200746Z 19003KT 25/18 A2988 RMK A01 T02510183  RH  066%=      5-min Rain = 0
KPG1 200747Z 20003KT 25/18 A2988 RMK A01 T02520184  RH  066%=      5-min Rain = 0
KPG1 200748Z 20003KT 25/19 A2988 RMK A01 T02520188  RH  068%=      5-min Rain = 0
KPG1 200749Z 20004KT 25/19 A2988 RMK A01 T02490188  RH  069%=      5-min Rain = 0
KPG1 200750Z 20003KT 25/19 A2988 RMK A01 T02470189  RH  070%=      5-min Rain = 0
KPG1 200751Z 20003KT 25/19 A2988 RMK A01 T02450189  RH  071%=      5-min Rain = 0
KPG1 200752Z 19004KT 25/19 A2988 RMK A01 T02450187  RH  070%=      5-min Rain = 0
KPG1 200753Z 20004KT 24/19 A2988 RMK A01 T02440187  RH  070%=      5-min Rain = 0
KPG1 200754Z 21004KT 24/19 A2988 RMK A01 T02440189  RH  071%=      5-min Rain = 0
KPG1 200755Z 21004KT 24/19 A2988 RMK A01 T02430188  RH  071%=      5-min Rain = 0
KPG1 200756Z 21003KT 24/19 A2988 RMK A01 T02420187  RH  071%=      5-min Rain = 0
KPG1 200757Z 21004KT 24/18 A2988 RMK A01 T02420184  RH  070%=      5-min Rain = 0
KPG1 200758Z 22004KT 24/18 A2988 RMK A01 T02420184  RH  070%=      5-min Rain = 0
KPG1 200759Z 21004KT 24/18 A2988 RMK A01 T02430182  RH  069%=      5-min Rain = 0
KPG1 200800Z 20004KT 24/18 A2988 RMK A01 T02440183  RH  068%=      5-min Rain = 0
KPG1 200801Z 20004KT 25/18 A2988 RMK A01 T02450183  RH  068%=      5-min Rain = 0
KPG1 200802Z 20004KT 25/19 A2988 RMK A01 T02450185  RH  069%=      5-min Rain = 0
KPG1 200803Z 20004KT 25/18 A2988 RMK A01 T02450184  RH  069%=      5-min Rain = 0
KPG1 200804Z 20004KT 24/19 A2988 RMK A01 T02440185  RH  069%=      5-min Rain = 0
KPG1 200805Z 20004KT 24/18 A2988 RMK A01 T02440183  RH  069%=      5-min Rain = 0
KPG1 200806Z 20004KT 25/18 A2988 RMK A01 T02450180  RH  067%=      5-min Rain = 0
KPG1 200807Z 22004KT 25/18 A2988 RMK A01 T02470178  RH  066%=      5-min Rain = 0
KPG1 200808Z 22005KT 25/18 A2988 RMK A01 T02490177  RH  065%=      5-min Rain = 0
KPG1 200809Z 21005KT 25/18 A2988 RMK A01 T02510177  RH  064%=      5-min Rain = 0
KPG1 200810Z 22005KT 25/18 A2988 RMK A01 T02510177  RH  063%=      5-min Rain = 0
KPG1 200811Z 23005KT 25/18 A2988 RMK A01 T02520175  RH  062%=      5-min Rain = 0
KPG1 200812Z 25006KT 25/18 A2988 RMK A01 T02520175  RH  062%=      5-min Rain = 0
KPG1 200813Z 24007KT 25/18 A2988 RMK A01 T02520175  RH  062%=      5-min Rain = 0
KPG1 200814Z 24007KT 25/17 A2988 RMK A01 T02510173  RH  062%=      5-min Rain = 0
KPG1 200815Z 23008KT 25/17 A2988 RMK A01 T02530171  RH  060%=      5-min Rain = 0
KPG1 200816Z 24007KT 26/17 A2988 RMK A01 T02550173  RH  060%=      5-min Rain = 0
KPG1 200817Z 26006KT 26/17 A2988 RMK A01 T02560172  RH  060%=      5-min Rain = 0
KPG1 200818Z 26006KT 26/17 A2988 RMK A01 T02570172  RH  060%=      5-min Rain = 0
KPG1 200819Z 25006KT 26/17 A2988 RMK A01 T02570169  RH  058%=      5-min Rain = 0
KPG1 200820Z 25006KT 26/17 A2988 RMK A01 T02590169  RH  058%=      5-min Rain = 0
KPG1 200821Z 24006KT 26/17 A2988 RMK A01 T02600171  RH  058%=      5-min Rain = 0
KPG1 200822Z 24007KT 26/17 A2988 RMK A01 T02590172  RH  059%=      5-min Rain = 0
KPG1 200823Z 25007KT 26/17 A2988 RMK A01 T02580169  RH  058%=      5-min Rain = 0
KPG1 200824Z 23006KT 26/17 A2988 RMK A01 T02600168  RH  057%=      5-min Rain = 0
KPG1 200825Z 24008KT 26/17 A2988 RMK A01 T02630168  RH  056%=      5-min Rain = 0
KPG1 200826Z 24007KT 26/17 A2988 RMK A01 T02630169  RH  056%=      5-min Rain = 0
KPG1 200827Z 24007KT 26/17 A2988 RMK A01 T02630169  RH  056%=      5-min Rain = 0
KPG1 200828Z 24007KT 26/17 A2988 RMK A01 T02630170  RH  057%=      5-min Rain = 0
KPG1 200829Z 23007KT 26/17 A2988 RMK A01 T02620170  RH  057%=      5-min Rain = 0
KPG1 200830Z 23007KT 26/17 A2988 RMK A01 T02610171  RH  057%=      5-min Rain = 0
KPG1 200831Z 23007KT 26/17 A2988 RMK A01 T02600172  RH  058%=      5-min Rain = 0
KPG1 200832Z 24007KT 26/17 A2988 RMK A01 T02590172  RH  059%=      5-min Rain = 0
KPG1 200833Z 23007KT 26/17 A2988 RMK A01 T02580172  RH  059%=      5-min Rain = 0
KPG1 200834Z 23006KT 26/17 A2988 RMK A01 T02570173  RH  060%=      5-min Rain = 0
KPG1 200835Z 22007KT 26/17 A2988 RMK A01 T02550173  RH  060%=      5-min Rain = 0
KPG1 200836Z 21007KT 25/17 A2988 RMK A01 T02540172  RH  060%=      5-min Rain = 0
KPG1 200837Z 21006KT 25/17 A2988 RMK A01 T02540173  RH  061%=      5-min Rain = 0
KPG1 200838Z 22006KT 25/17 A2988 RMK A01 T02540173  RH  061%=      5-min Rain = 0
KPG1 200839Z 23006KT 25/17 A2988 RMK A01 T02520174  RH  062%=      5-min Rain = 0
KPG1 200840Z 22006KT 25/17 A2988 RMK A01 T02520172  RH  061%=      5-min Rain = 0
KPG1 200841Z 23006KT 25/17 A2988 RMK A01 T02540171  RH  060%=      5-min Rain = 0
KPG1 200842Z 22007KT 26/17 A2988 RMK A01 T02550172  RH  060%=      5-min Rain = 0
KPG1 200843Z 21006KT 26/17 A2988 RMK A01 T02550172  RH  060%=      5-min Rain = 0
KPG1 200844Z 22007KT 26/17 A2988 RMK A01 T02550173  RH  060%=      5-min Rain = 0
KPG1 200845Z 22006KT 26/17 A2988 RMK A01 T02550172  RH  060%=      5-min Rain = 0
KPG1 200846Z 21007KT 25/17 A2988 RMK A01 T02540174  RH  061%=      5-min Rain = 0
KPG1 200847Z 23006KT 25/17 A2988 RMK A01 T02530174  RH  062%=      5-min Rain = 0
KPG1 200848Z 22007KT 25/17 A2988 RMK A01 T02520174  RH  062%=      5-min Rain = 0
KPG1 200849Z 23007KT 25/17 A2988 RMK A01 T02510173  RH  062%=      5-min Rain = 0
KPG1 200850Z 22006KT 25/17 A2988 RMK A01 T02510173  RH  062%=      5-min Rain = 0
KPG1 200851Z 22006KT 25/17 A2988 RMK A01 T02520173  RH  062%=      5-min Rain = 0
KPG1 200852Z 23006KT 25/17 A2988 RMK A01 T02520173  RH  062%=      5-min Rain = 0
KPG1 200853Z 23006KT 25/17 A2988 RMK A01 T02520173  RH  062%=      5-min Rain = 0
KPG1 200854Z 23006KT 25/17 A2988 RMK A01 T02510172  RH  061%=      5-min Rain = 0
KPG1 200855Z 22007KT 25/17 A2988 RMK A01 T02520172  RH  061%=      5-min Rain = 0
KPG1 200856Z 21007KT 25/17 A2988 RMK A01 T02520171  RH  061%=      5-min Rain = 0
KPG1 200857Z 21006KT 25/17 A2988 RMK A01 T02540170  RH  060%=      5-min Rain = 0
KPG1 200858Z 20006KT 26/17 A2988 RMK A01 T02550171  RH  060%=      5-min Rain = 0
KPG1 200859Z 20006KT 26/17 A2988 RMK A01 T02560173  RH  060%=      5-min Rain = 0
KPG1 200900Z 19006KT 26/17 A2988 RMK A01 T02550172  RH  060%=      5-min Rain = 0
KPG1 200901Z 18007KT 26/17 A2988 RMK A01 T02550171  RH  060%=      5-min Rain = 0
KPG1 200902Z 18007KT 26/17 A2988 RMK A01 T02550172  RH  060%=      5-min Rain = 0
KPG1 200903Z 18007KT 26/17 A2988 RMK A01 T02550172  RH  060%=      5-min Rain = 0
KPG1 200904Z 17007KT 25/17 A2988 RMK A01 T02540172  RH  060%=      5-min Rain = 0
KPG1 200905Z 18006KT 25/17 A2988 RMK A01 T02540172  RH  060%=      5-min Rain = 0
KPG1 200906Z 17008KT 25/17 A2988 RMK A01 T02530172  RH  061%=      5-min Rain = 0
KPG1 200907Z 18006KT 25/17 A2988 RMK A01 T02530171  RH  060%=      5-min Rain = 0
KPG1 200908Z 17006KT 25/17 A2988 RMK A01 T02530172  RH  060%=      5-min Rain = 0
KPG1 200909Z 19006KT 25/17 A2988 RMK A01 T02530172  RH  061%=      5-min Rain = 0
KPG1 200910Z 19006KT 25/17 A2988 RMK A01 T02530170  RH  060%=      5-min Rain = 0
KPG1 200911Z 20006KT 25/17 A2988 RMK A01 T02540170  RH  060%=      5-min Rain = 0
KPG1 200912Z 20006KT 25/17 A2988 RMK A01 T02540171  RH  060%=      5-min Rain = 0
KPG1 200913Z 19006KT 25/17 A2988 RMK A01 T02540171  RH  060%=      5-min Rain = 0
KPG1 200914Z 19006KT 25/17 A2988 RMK A01 T02540170  RH  060%=      5-min Rain = 0
KPG1 200915Z 19005KT 25/17 A2988 RMK A01 T02540170  RH  060%=      5-min Rain = 0
KPG1 200916Z 18005KT 25/17 A2988 RMK A01 T02540171  RH  060%=      5-min Rain = 0
KPG1 200917Z 18006KT 25/17 A2989 RMK A01 T02540170  RH  060%=      5-min Rain = 0
KPG1 200918Z 18006KT 25/17 A2989 RMK A01 T02540170  RH  060%=      5-min Rain = 0
KPG1 200919Z 17007KT 25/17 A2989 RMK A01 T02540170  RH  060%=      5-min Rain = 0
KPG1 200920Z 17007KT 25/17 A2989 RMK A01 T02530171  RH  060%=      5-min Rain = 0
KPG1 200921Z 17007KT 25/17 A2989 RMK A01 T02530171  RH  060%=      5-min Rain = 0
KPG1 200922Z 18007KT 25/17 A2989 RMK A01 T02520170  RH  060%=      5-min Rain = 0
KPG1 200923Z 18007KT 25/17 A2989 RMK A01 T02520170  RH  061%=      5-min Rain = 0
KPG1 200924Z 18006KT 25/17 A2989 RMK A01 T02520171  RH  061%=      5-min Rain = 0
KPG1 200925Z 18006KT 25/17 A2989 RMK A01 T02510170  RH  061%=      5-min Rain = 0
KPG1 200926Z 17006KT 25/17 A2989 RMK A01 T02520170  RH  060%=      5-min Rain = 0
KPG1 200927Z 18006KT 25/17 A2989 RMK A01 T02520172  RH  061%=      5-min Rain = 0
KPG1 200928Z 18007KT 25/17 A2989 RMK A01 T02500171  RH  061%=      5-min Rain = 0
KPG1 200929Z 18007KT 25/17 A2989 RMK A01 T02500170  RH  061%=      5-min Rain = 0
KPG1 200930Z 18007KT 25/17 A2989 RMK A01 T02500169  RH  061%=      5-min Rain = 0
KPG1 200931Z 18008KT 25/17 A2989 RMK A01 T02510169  RH  061%=      5-min Rain = 0
KPG1 200932Z 18008KT 25/17 A2989 RMK A01 T02510169  RH  060%=      5-min Rain = 0
KPG1 200933Z 19007KT 25/17 A2989 RMK A01 T02520169  RH  060%=      5-min Rain = 0
KPG1 200934Z 18006KT 25/17 A2989 RMK A01 T02520169  RH  060%=      5-min Rain = 0
KPG1 200935Z 18007KT 25/17 A2989 RMK A01 T02520171  RH  061%=      5-min Rain = 0
KPG1 200936Z 20007KT 25/17 A2989 RMK A01 T02510171  RH  061%=      5-min Rain = 0
KPG1 200937Z 21006KT 25/17 A2989 RMK A01 T02500171  RH  062%=      5-min Rain = 0
KPG1 200938Z 21006KT 25/17 A2989 RMK A01 T02480172  RH  063%=      5-min Rain = 0
KPG1 200939Z 21006KT 25/17 A2989 RMK A01 T02460173  RH  064%=      5-min Rain = 0
KPG1 200940Z 21006KT 24/17 A2989 RMK A01 T02440174  RH  065%=      5-min Rain = 0
KPG1 200941Z 21007KT 24/18 A2989 RMK A01 T02420175  RH  066%=      5-min Rain = 0
KPG1 200942Z 23006KT 24/18 A2989 RMK A01 T02410176  RH  067%=      5-min Rain = 0
KPG1 200943Z 23006KT 24/18 A2989 RMK A01 T02390176  RH  068%=      5-min Rain = 0
KPG1 200944Z 23008KT 24/18 A2989 RMK A01 T02380177  RH  069%=      5-min Rain = 0
KPG1 200945Z 22007KT 24/18 A2989 RMK A01 T02370176  RH  069%=      5-min Rain = 0
KPG1 200946Z 23007KT 24/18 A2989 RMK A01 T02370175  RH  068%=      5-min Rain = 0
KPG1 200947Z 23008KT 24/18 A2989 RMK A01 T02370175  RH  068%=      5-min Rain = 0
KPG1 200948Z 23008KT 24/17 A2989 RMK A01 T02380174  RH  067%=      5-min Rain = 0
KPG1 200949Z 24008KT 24/18 A2989 RMK A01 T02390175  RH  067%=      5-min Rain = 0
KPG1 200950Z 23008KT 24/18 A2989 RMK A01 T02390175  RH  067%=      5-min Rain = 0
KPG1 200951Z 24007KT 24/18 A2989 RMK A01 T02380175  RH  068%=      5-min Rain = 0
KPG1 200952Z 23009KT 24/17 A2989 RMK A01 T02380173  RH  067%=      5-min Rain = 0
KPG1 200953Z 23009KT 24/17 A2989 RMK A01 T02400172  RH  065%=      5-min Rain = 0
KPG1 200954Z 23008KT 24/17 A2989 RMK A01 T02420172  RH  065%=      5-min Rain = 0
KPG1 200955Z 23008KT 24/17 A2989 RMK A01 T02430172  RH  064%=      5-min Rain = 0
KPG1 200956Z 24008KT 24/17 A2989 RMK A01 T02430172  RH  064%=      5-min Rain = 0
KPG1 200957Z 24008KT 24/17 A2989 RMK A01 T02430171  RH  064%=      5-min Rain = 0
KPG1 200958Z 24008KT 24/17 A2989 RMK A01 T02430171  RH  064%=      5-min Rain = 0
KPG1 200959Z 24008KT 24/17 A2989 RMK A01 T02440170  RH  063%=      5-min Rain = 0
KPG1 201000Z 24009KT 25/17 A2989 RMK A01 T02450169  RH  063%=      5-min Rain = 0
KPG1 201001Z 24008KT 25/17 A299 RMK A01 T02450171  RH  063%=      5-min Rain = 0
KPG1 201002Z 24008KT 25/17 A299 RMK A01 T02450171  RH  063%=      5-min Rain = 0
KPG1 201003Z 24008KT 25/17 A299 RMK A01 T02450171  RH  064%=      5-min Rain = 0
KPG1 201004Z 24008KT 24/17 A299 RMK A01 T02440170  RH  063%=      5-min Rain = 0
KPG1 201005Z 25008KT 24/17 A2989 RMK A01 T02440169  RH  063%=      5-min Rain = 0
KPG1 201006Z 25007KT 25/17 A2989 RMK A01 T02450169  RH  062%=      5-min Rain = 0
KPG1 201007Z 24007KT 25/17 A299 RMK A01 T02450169  RH  062%=      5-min Rain = 0
KPG1 201008Z 24007KT 25/17 A299 RMK A01 T02460169  RH  062%=      5-min Rain = 0
KPG1 201009Z 24007KT 25/17 A299 RMK A01 T02460170  RH  062%=      5-min Rain = 0
KPG1 201010Z 23007KT 25/17 A299 RMK A01 T02460170  RH  063%=      5-min Rain = 0
KPG1 201011Z 24007KT 25/17 A299 RMK A01 T02450170  RH  063%=      5-min Rain = 0
KPG1 201012Z 25009KT 25/17 A299 RMK A01 T02450170  RH  063%=      5-min Rain = 0
KPG1 201013Z 24008KT 24/17 A299 RMK A01 T02440168  RH  062%=      5-min Rain = 0
KPG1 201014Z 25008KT 25/17 A299 RMK A01 T02450168  RH  062%=      5-min Rain = 0
KPG1 201015Z 24006KT 25/17 A299 RMK A01 T02460168  RH  061%=      5-min Rain = 0
KPG1 201016Z 23007KT 25/17 A299 RMK A01 T02470168  RH  061%=      5-min Rain = 0
KPG1 201017Z 24008KT 25/17 A299 RMK A01 T02480168  RH  061%=      5-min Rain = 0
KPG1 201018Z 23007KT 25/17 A299 RMK A01 T02480168  RH  061%=      5-min Rain = 0
KPG1 201019Z 24007KT 25/17 A299 RMK A01 T02470168  RH  061%=      5-min Rain = 0
KPG1 201020Z 24007KT 25/17 A299 RMK A01 T02470168  RH  061%=      5-min Rain = 0
KPG1 201021Z 24009KT 25/17 A299 RMK A01 T02470167  RH  061%=      5-min Rain = 0
KPG1 201022Z 25009KT 25/17 A299 RMK A01 T02470167  RH  061%=      5-min Rain = 0
KPG1 201023Z 24009KT 25/17 A299 RMK A01 T02470167  RH  061%=      5-min Rain = 0
KPG1 201024Z 24009KT 25/17 A299 RMK A01 T02480167  RH  061%=      5-min Rain = 0
KPG1 201025Z 24008KT 25/17 A299 RMK A01 T02480166  RH  060%=      5-min Rain = 0
KPG1 201026Z 23007KT 25/17 A299 RMK A01 T02490166  RH  060%=      5-min Rain = 0
KPG1 201027Z 23008KT 25/17 A299 RMK A01 T02490166  RH  060%=      5-min Rain = 0
KPG1 201028Z 22007KT 25/17 A299 RMK A01 T02490166  RH  060%=      5-min Rain = 0
KPG1 201029Z 22008KT 25/17 A299 RMK A01 T02490167  RH  061%=      5-min Rain = 0
KPG1 201030Z 23007KT 25/17 A299 RMK A01 T02480167  RH  061%=      5-min Rain = 0
KPG1 201031Z 23007KT 25/17 A299 RMK A01 T02470167  RH  061%=      5-min Rain = 0
KPG1 201032Z 23007KT 25/17 A299 RMK A01 T02460168  RH  062%=      5-min Rain = 0
KPG1 201033Z 23007KT 25/17 A299 RMK A01 T02450168  RH  062%=      5-min Rain = 0
KPG1 201034Z 23007KT 24/17 A299 RMK A01 T02440168  RH  062%=      5-min Rain = 0
KPG1 201035Z 23008KT 24/17 A299 RMK A01 T02440167  RH  062%=      5-min Rain = 0
KPG1 201036Z 23007KT 24/17 A299 RMK A01 T02430168  RH  063%=      5-min Rain = 0
KPG1 201037Z 23007KT 24/17 A299 RMK A01 T02430168  RH  063%=      5-min Rain = 0
KPG1 201038Z 23008KT 24/17 A299 RMK A01 T02420167  RH  063%=      5-min Rain = 0
KPG1 201039Z 23008KT 24/17 A299 RMK A01 T02420167  RH  063%=      5-min Rain = 0
KPG1 201040Z 24007KT 24/17 A299 RMK A01 T02420167  RH  063%=      5-min Rain = 0
KPG1 201041Z 23008KT 24/17 A299 RMK A01 T02430167  RH  063%=      5-min Rain = 0
KPG1 201042Z 23008KT 24/17 A299 RMK A01 T02430166  RH  062%=      5-min Rain = 0
KPG1 201043Z 23008KT 24/17 A299 RMK A01 T02430166  RH  062%=      5-min Rain = 0
KPG1 201044Z 22008KT 24/17 A299 RMK A01 T02430166  RH  062%=      5-min Rain = 0
KPG1 201045Z 22007KT 24/17 A299 RMK A01 T02430165  RH  062%=      5-min Rain = 0
KPG1 201046Z 21008KT 24/17 A299 RMK A01 T02430165  RH  062%=      5-min Rain = 0
KPG1 201047Z 21008KT 24/16 A299 RMK A01 T02430164  RH  062%=      5-min Rain = 0
KPG1 201048Z 20008KT 24/16 A299 RMK A01 T02430164  RH  061%=      5-min Rain = 0
KPG1 201049Z 20009KT 24/16 A299 RMK A01 T02430162  RH  061%=      5-min Rain = 0
KPG1 201050Z 20009KT 25/16 A299 RMK A01 T02450161  RH  059%=      5-min Rain = 0
KPG1 201051Z 19008KT 25/16 A299 RMK A01 T02460160  RH  059%=      5-min Rain = 0
KPG1 201052Z 20008KT 25/16 A299 RMK A01 T02470161  RH  059%=      5-min Rain = 0
KPG1 201053Z 19007KT 25/16 A299 RMK A01 T02480161  RH  059%=      5-min Rain = 0
KPG1 201054Z 19008KT 25/16 A299 RMK A01 T02470161  RH  059%=      5-min Rain = 0
KPG1 201055Z 19008KT 25/16 A299 RMK A01 T02470161  RH  059%=      5-min Rain = 0
KPG1 201056Z 19009KT 25/16 A299 RMK A01 T02460161  RH  059%=      5-min Rain = 0
KPG1 201057Z 20010KT 25/16 A299 RMK A01 T02470160  RH  059%=      5-min Rain = 0
KPG1 201058Z 19008KT 25/16 A299 RMK A01 T02480158  RH  057%=      5-min Rain = 0
KPG1 201059Z 20008KT 25/16 A299 RMK A01 T02490159  RH  057%=      5-min Rain = 0
KPG1 201100Z 20008KT 25/16 A299 RMK A01 T02490160  RH  058%=      5-min Rain = 0
KPG1 201101Z 20008KT 25/16 A299 RMK A01 T02470159  RH  058%=      5-min Rain = 0
KPG1 201102Z 20008KT 25/16 A299 RMK A01 T02470159  RH  058%=      5-min Rain = 0
KPG1 201103Z 22007KT 25/16 A299 RMK A01 T02450160  RH  059%=      5-min Rain = 0
KPG1 201104Z 22009KT 24/16 A299 RMK A01 T02440160  RH  060%=      5-min Rain = 0
KPG1 201105Z 23008KT 24/16 A299 RMK A01 T02430159  RH  059%=      5-min Rain = 0
KPG1 201106Z 23007KT 24/16 A299 RMK A01 T02420160  RH  060%=      5-min Rain = 0
KPG1 201107Z 23007KT 24/16 A299 RMK A01 T02420161  RH  060%=      5-min Rain = 0
KPG1 201108Z 23007KT 24/16 A299 RMK A01 T02420160  RH  060%=      5-min Rain = 0
KPG1 201109Z 21009KT 24/16 A299 RMK A01 T02420158  RH  059%=      5-min Rain = 0
KPG1 201110Z 21008KT 25/16 A299 RMK A01 T02450158  RH  058%=      5-min Rain = 0
KPG1 201111Z 22007KT 25/16 A2991 RMK A01 T02460159  RH  058%=      5-min Rain = 0
KPG1 201112Z 22007KT 25/16 A2991 RMK A01 T02450160  RH  059%=      5-min Rain = 0
KPG1 201113Z 22006KT 24/16 A2991 RMK A01 T02440161  RH  060%=      5-min Rain = 0
KPG1 201114Z 21006KT 24/16 A2991 RMK A01 T02420160  RH  060%=      5-min Rain = 0
KPG1 201115Z 21007KT 24/16 A2991 RMK A01 T02420160  RH  060%=      5-min Rain = 0
KPG1 201116Z 21007KT 24/16 A2991 RMK A01 T02420160  RH  060%=      5-min Rain = 0
KPG1 201117Z 22007KT 24/16 A2991 RMK A01 T02420160  RH  060%=      5-min Rain = 0
KPG1 201118Z 22007KT 24/16 A2991 RMK A01 T02420160  RH  060%=      5-min Rain = 0
KPG1 201119Z 23007KT 24/16 A2991 RMK A01 T02410161  RH  061%=      5-min Rain = 0
KPG1 201120Z 23008KT 24/16 A2991 RMK A01 T02400160  RH  061%=      5-min Rain = 0
KPG1 201121Z 21008KT 24/16 A2991 RMK A01 T02410157  RH  059%=      5-min Rain = 0
KPG1 201122Z 22007KT 24/16 A2991 RMK A01 T02440159  RH  059%=      5-min Rain = 0
KPG1 201123Z 21007KT 24/16 A2991 RMK A01 T02440159  RH  059%=      5-min Rain = 0
KPG1 201124Z 21007KT 24/16 A2991 RMK A01 T02430159  RH  059%=      5-min Rain = 0
KPG1 201125Z 21007KT 24/16 A2991 RMK A01 T02430158  RH  059%=      5-min Rain = 0
KPG1 201126Z 21008KT 24/16 A2991 RMK A01 T02440158  RH  059%=      5-min Rain = 0
KPG1 201127Z 21008KT 24/16 A2991 RMK A01 T02440158  RH  059%=      5-min Rain = 0
KPG1 201128Z 21007KT 24/16 A2991 RMK A01 T02440158  RH  059%=      5-min Rain = 0
KPG1 201129Z 20009KT 24/16 A2991 RMK A01 T02440158  RH  059%=      5-min Rain = 0
KPG1 201130Z 21008KT 24/16 A2991 RMK A01 T02440159  RH  059%=      5-min Rain = 0
KPG1 201131Z 20008KT 24/16 A2991 RMK A01 T02440160  RH  060%=      5-min Rain = 0
KPG1 201132Z 21007KT 24/16 A2991 RMK A01 T02420160  RH  060%=      5-min Rain = 0
KPG1 201133Z 23006KT 24/16 A2992 RMK A01 T02400161  RH  061%=      5-min Rain = 0
KPG1 201134Z 22006KT 24/16 A2992 RMK A01 T02390160  RH  061%=      5-min Rain = 0
KPG1 201135Z 22008KT 24/16 A2992 RMK A01 T02380159  RH  061%=      5-min Rain = 0
KPG1 201136Z 22008KT 24/16 A2992 RMK A01 T02390158  RH  060%=      5-min Rain = 0
KPG1 201137Z 22007KT 24/16 A2992 RMK A01 T02410157  RH  059%=      5-min Rain = 0
KPG1 201138Z 22008KT 24/16 A2992 RMK A01 T02420158  RH  059%=      5-min Rain = 0
KPG1 201139Z 21008KT 24/16 A2992 RMK A01 T02420158  RH  059%=      5-min Rain = 0
KPG1 201140Z 22008KT 24/16 A2992 RMK A01 T02430156  RH  058%=      5-min Rain = 0
KPG1 201141Z 21009KT 24/16 A2992 RMK A01 T02440158  RH  058%=      5-min Rain = 0
KPG1 201142Z 22008KT 25/16 A2992 RMK A01 T02450155  RH  057%=      5-min Rain = 0
KPG1 201143Z 22007KT 25/16 A2992 RMK A01 T02460158  RH  058%=      5-min Rain = 0
KPG1 201144Z 22007KT 25/16 A2992 RMK A01 T02450159  RH  059%=      5-min Rain = 0
KPG1 201145Z 22006KT 24/16 A2992 RMK A01 T02430161  RH  060%=      5-min Rain = 0
KPG1 201146Z 22006KT 24/16 A2992 RMK A01 T02400162  RH  062%=      5-min Rain = 0
KPG1 201147Z 22007KT 24/16 A2992 RMK A01 T02370162  RH  063%=      5-min Rain = 0
KPG1 201148Z 21006KT 24/16 A2992 RMK A01 T02360162  RH  063%=      5-min Rain = 0
KPG1 201149Z 19006KT 24/16 A2992 RMK A01 T02350164  RH  064%=      5-min Rain = 0
KPG1 201150Z 20006KT 23/17 A2992 RMK A01 T02320167  RH  067%=      5-min Rain = 0
KPG1 201151Z 22006KT 23/17 A2992 RMK A01 T02290167  RH  068%=      5-min Rain = 0
KPG1 201152Z 22005KT 23/17 A2993 RMK A01 T02260169  RH  070%=      5-min Rain = 0
KPG1 201153Z 21005KT 22/17 A2993 RMK A01 T02240171  RH  072%=      5-min Rain = 0
KPG1 201154Z 20006KT 22/17 A2993 RMK A01 T02220172  RH  074%=      5-min Rain = 0
KPG1 201155Z 22006KT 22/17 A2993 RMK A01 T02210173  RH  074%=      5-min Rain = 0
KPG1 201156Z 22006KT 22/17 A2993 RMK A01 T02210172  RH  074%=      5-min Rain = 0
KPG1 201157Z 22005KT 22/18 A2993 RMK A01 T02210175  RH  075%=      5-min Rain = 0
KPG1 201158Z 22005KT 22/18 A2993 RMK A01 T02200175  RH  076%=      5-min Rain = 0
KPG1 201159Z 19004KT 22/18 A2993 RMK A01 T02180177  RH  077%=      5-min Rain = 0
KPG1 201200Z 17006KT 22/18 A2993 RMK A01 T02170177  RH  078%=      5-min Rain = 0
KPG1 201201Z 20006KT 22/18 A2992 RMK A01 T02160175  RH  078%=      5-min Rain = 0
KPG1 201202Z 21006KT 22/17 A2993 RMK A01 T02170174  RH  076%=      5-min Rain = 0
KPG1 201203Z 20006KT 22/18 A2993 RMK A01 T02190175  RH  076%=      5-min Rain = 0
KPG1 201204Z 20006KT 22/18 A2993 RMK A01 T02190176  RH  076%=      5-min Rain = 0
KPG1 201205Z 21007KT 22/18 A2993 RMK A01 T02190176  RH  076%=      5-min Rain = 0
KPG1 201206Z 20005KT 22/18 A2993 RMK A01 T02190175  RH  076%=      5-min Rain = 0
KPG1 201207Z 18005KT 22/18 A2993 RMK A01 T02200176  RH  076%=      5-min Rain = 0
KPG1 201208Z 18006KT 22/18 A2993 RMK A01 T02200175  RH  076%=      5-min Rain = 0
KPG1 201209Z 19006KT 22/17 A2993 RMK A01 T02200174  RH  075%=      5-min Rain = 0
KPG1 201210Z 21006KT 22/17 A2993 RMK A01 T02210174  RH  075%=      5-min Rain = 0
KPG1 201211Z 21007KT 22/18 A2993 RMK A01 T02210175  RH  075%=      5-min Rain = 0
KPG1 201212Z 20006KT 22/18 A2993 RMK A01 T02210175  RH  075%=      5-min Rain = 0
KPG1 201213Z 20005KT 22/17 A2993 RMK A01 T02210174  RH  075%=      5-min Rain = 0
KPG1 201214Z 19005KT 22/17 A2993 RMK A01 T02210174  RH  075%=      5-min Rain = 0
KPG1 201215Z 20005KT 22/17 A2993 RMK A01 T02220174  RH  074%=      5-min Rain = 0
KPG1 201216Z 20004KT 22/18 A2993 RMK A01 T02220176  RH  075%=      5-min Rain = 0
KPG1 201217Z 19005KT 22/18 A2993 RMK A01 T02210175  RH  075%=      5-min Rain = 0
KPG1 201218Z 20006KT 22/17 A2993 RMK A01 T02210173  RH  074%=      5-min Rain = 0
KPG1 201219Z 20006KT 22/17 A2993 RMK A01 T02230172  RH  073%=      5-min Rain = 0
KPG1 201220Z 20005KT 22/17 A2993 RMK A01 T02240172  RH  072%=      5-min Rain = 0
KPG1 201221Z 20004KT 23/17 A2993 RMK A01 T02250173  RH  072%=      5-min Rain = 0
KPG1 201222Z 19004KT 23/17 A2993 RMK A01 T02250173  RH  072%=      5-min Rain = 0
KPG1 201223Z 20004KT 23/17 A2993 RMK A01 T02250173  RH  072%=      5-min Rain = 0
KPG1 201224Z 21004KT 23/17 A2993 RMK A01 T02250173  RH  072%=      5-min Rain = 0
KPG1 201225Z 19005KT 23/17 A2993 RMK A01 T02250171  RH  072%=      5-min Rain = 0
KPG1 201226Z 20005KT 23/17 A2993 RMK A01 T02260169  RH  070%=      5-min Rain = 0
KPG1 201227Z 19005KT 23/17 A2993 RMK A01 T02280169  RH  070%=      5-min Rain = 0
KPG1 201228Z 18005KT 23/17 A2993 RMK A01 T02290169  RH  069%=      5-min Rain = 0
KPG1 201229Z 18005KT 23/17 A2993 RMK A01 T02300168  RH  068%=      5-min Rain = 0
KPG1 201230Z 19005KT 23/17 A2993 RMK A01 T02310168  RH  068%=      5-min Rain = 0
KPG1 201231Z 20005KT 23/17 A2993 RMK A01 T02320170  RH  068%=      5-min Rain = 0
KPG1 201232Z 20005KT 23/17 A2993 RMK A01 T02310171  RH  069%=      5-min Rain = 0
KPG1 201233Z 20005KT 23/17 A2993 RMK A01 T02290170  RH  069%=      5-min Rain = 0
KPG1 201234Z 20005KT 23/17 A2993 RMK A01 T02290170  RH  069%=      5-min Rain = 0
KPG1 201235Z 20004KT 23/17 A2993 RMK A01 T02290171  RH  070%=      5-min Rain = 0
KPG1 201236Z 20004KT 23/17 A2993 RMK A01 T02280171  RH  070%=      5-min Rain = 0
KPG1 201237Z 19005KT 23/17 A2993 RMK A01 T02290170  RH  069%=      5-min Rain = 0
KPG1 201238Z 19004KT 23/17 A2993 RMK A01 T02300170  RH  069%=      5-min Rain = 0
KPG1 201239Z 19005KT 23/17 A2993 RMK A01 T02310170  RH  069%=      5-min Rain = 0
KPG1 201240Z 20004KT 23/17 A2993 RMK A01 T02320171  RH  068%=      5-min Rain = 0
KPG1 201241Z 19004KT 23/17 A2993 RMK A01 T02330172  RH  069%=      5-min Rain = 0
KPG1 201242Z 17005KT 23/17 A2993 RMK A01 T02330171  RH  068%=      5-min Rain = 0
KPG1 201243Z 16005KT 23/17 A2993 RMK A01 T02340171  RH  068%=      5-min Rain = 0
KPG1 201244Z 16004KT 24/18 A2993 RMK A01 T02350177  RH  070%=      5-min Rain = 0
KPG1 201245Z 16003KT 24/18 A2993 RMK A01 T02350179  RH  071%=      5-min Rain = 0
KPG1 201246Z 16004KT 23/18 A2993 RMK A01 T02340180  RH  071%=      5-min Rain = 0
KPG1 201247Z 16004KT 23/18 A2993 RMK A01 T02330179  RH  072%=      5-min Rain = 0
KPG1 201248Z 16005KT 23/18 A2993 RMK A01 T02320179  RH  072%=      5-min Rain = 0
KPG1 201249Z 17005KT 23/18 A2993 RMK A01 T02320178  RH  072%=      5-min Rain = 0
KPG1 201250Z 18004KT 23/18 A2993 RMK A01 T02320177  RH  071%=      5-min Rain = 0
KPG1 201251Z 18005KT 23/18 A2993 RMK A01 T02320175  RH  070%=      5-min Rain = 0
KPG1 201252Z 18005KT 23/17 A2993 RMK A01 T02320172  RH  069%=      5-min Rain = 0
KPG1 201253Z 18005KT 24/17 A2993 RMK A01 T02350174  RH  069%=      5-min Rain = 0
KPG1 201254Z 20004KT 24/18 A2993 RMK A01 T02350176  RH  069%=      5-min Rain = 0
KPG1 201255Z 20003KT 24/18 A2994 RMK A01 T02360179  RH  070%=      5-min Rain = 0
KPG1 201256Z 19003KT 24/18 A2994 RMK A01 T02360179  RH  070%=      5-min Rain = 0
KPG1 201257Z 19004KT 24/18 A2994 RMK A01 T02360178  RH  070%=      5-min Rain = 0
KPG1 201258Z 19004KT 24/18 A2994 RMK A01 T02370178  RH  069%=      5-min Rain = 0
KPG1 201259Z 19004KT 24/18 A2994 RMK A01 T02370176  RH  069%=      5-min Rain = 0
KPG1 201300Z 19004KT 24/18 A2994 RMK A01 T02380177  RH  068%=      5-min Rain = 0
KPG1 201301Z 19004KT 24/18 A2994 RMK A01 T02390178  RH  069%=      5-min Rain = 0
KPG1 201302Z 18005KT 24/18 A2994 RMK A01 T02400175  RH  067%=      5-min Rain = 0
KPG1 201303Z 18005KT 24/17 A2994 RMK A01 T02410172  RH  065%=      5-min Rain = 0
KPG1 201304Z 17005KT 24/17 A2994 RMK A01 T02430172  RH  065%=      5-min Rain = 0
KPG1 201305Z 17004KT 24/17 A2994 RMK A01 T02440170  RH  064%=      5-min Rain = 0
KPG1 201306Z 17004KT 25/17 A2994 RMK A01 T02450173  RH  064%=      5-min Rain = 0
KPG1 201307Z 17004KT 25/17 A2994 RMK A01 T02450172  RH  064%=      5-min Rain = 0
KPG1 201308Z 17004KT 25/17 A2994 RMK A01 T02460172  RH  063%=      5-min Rain = 0
KPG1 201309Z 17003KT 25/17 A2994 RMK A01 T02470174  RH  064%=      5-min Rain = 0
KPG1 201310Z 17004KT 25/17 A2994 RMK A01 T02470171  RH  063%=      5-min Rain = 0
KPG1 201311Z 18004KT 25/17 A2994 RMK A01 T02470172  RH  063%=      5-min Rain = 0
KPG1 201312Z 18003KT 25/17 A2995 RMK A01 T02480170  RH  062%=      5-min Rain = 0
KPG1 201313Z 19002KT 25/17 A2995 RMK A01 T02480173  RH  063%=      5-min Rain = 0
KPG1 201314Z 20002KT 25/17 A2995 RMK A01 T02480174  RH  063%=      5-min Rain = 0
KPG1 201315Z 20003KT 25/17 A2995 RMK A01 T02480173  RH  063%=      5-min Rain = 0
KPG1 201316Z 19002KT 25/18 A2995 RMK A01 T02490175  RH  063%=      5-min Rain = 0
KPG1 201317Z 19003KT 25/17 A2995 RMK A01 T02490172  RH  062%=      5-min Rain = 0
KPG1 201318Z 17003KT 25/17 A2995 RMK A01 T02500174  RH  063%=      5-min Rain = 0
KPG1 201319Z 17002KT 25/17 A2995 RMK A01 T02510174  RH  062%=      5-min Rain = 0
KPG1 201320Z 16003KT 25/17 A2995 RMK A01 T02530174  RH  062%=      5-min Rain = 0
KPG1 201321Z 15003KT 25/17 A2995 RMK A01 T02530172  RH  061%=      5-min Rain = 0
KPG1 201322Z 15003KT 25/17 A2995 RMK A01 T02540172  RH  060%=      5-min Rain = 0
KPG1 201323Z 16004KT 26/17 A2995 RMK A01 T02560170  RH  059%=      5-min Rain = 0
KPG1 201324Z 15004KT 26/17 A2995 RMK A01 T02570169  RH  058%=      5-min Rain = 0
KPG1 201325Z 16004KT 26/17 A2995 RMK A01 T02580169  RH  058%=      5-min Rain = 0
KPG1 201326Z 15004KT 26/17 A2995 RMK A01 T02580170  RH  058%=      5-min Rain = 0
KPG1 201327Z 15004KT 26/17 A2995 RMK A01 T02590168  RH  057%=      5-min Rain = 0
KPG1 201328Z 16005KT 26/17 A2995 RMK A01 T02600169  RH  057%=      5-min Rain = 0
KPG1 201329Z 16005KT 26/17 A2995 RMK A01 T02600166  RH  056%=      5-min Rain = 0
KPG1 201330Z 16005KT 26/17 A2995 RMK A01 T02610167  RH  056%=      5-min Rain = 0
KPG1 201331Z 17005KT 26/17 A2995 RMK A01 T02620165  RH  055%=      5-min Rain = 0
KPG1 201332Z 17006KT 26/16 A2995 RMK A01 T02630164  RH  054%=      5-min Rain = 0
KPG1 201333Z 17007KT 27/16 A2995 RMK A01 T02650162  RH  053%=      5-min Rain = 0
KPG1 201334Z 17006KT 27/16 A2995 RMK A01 T02660164  RH  053%=      5-min Rain = 0
KPG1 201335Z 17007KT 27/16 A2995 RMK A01 T02660162  RH  053%=      5-min Rain = 0
KPG1 201336Z 17007KT 27/16 A2995 RMK A01 T02670164  RH  053%=      5-min Rain = 0
KPG1 201337Z 17007KT 27/16 A2995 RMK A01 T02680162  RH  052%=      5-min Rain = 0
KPG1 201338Z 17007KT 27/16 A2995 RMK A01 T02680164  RH  053%=      5-min Rain = 0
KPG1 201339Z 17006KT 27/17 A2995 RMK A01 T02690165  RH  053%=      5-min Rain = 0
KPG1 201340Z 17006KT 27/17 A2995 RMK A01 T02690170  RH  055%=      5-min Rain = 0
KPG1 201341Z 17007KT 27/17 A2995 RMK A01 T02690166  RH  053%=      5-min Rain = 0
KPG1 201342Z 17008KT 27/17 A2995 RMK A01 T02690165  RH  053%=      5-min Rain = 0
KPG1 201343Z 18008KT 27/16 A2995 RMK A01 T02690163  RH  052%=      5-min Rain = 0
KPG1 201344Z 18006KT 27/16 A2995 RMK A01 T02690164  RH  052%=      5-min Rain = 0
KPG1 201345Z 18008KT 27/17 A2995 RMK A01 T02700167  RH  054%=      5-min Rain = 0
KPG1 201346Z 18007KT 27/16 A2995 RMK A01 T02700164  RH  052%=      5-min Rain = 0
KPG1 201347Z 19007KT 27/17 A2995 RMK A01 T02690167  RH  053%=      5-min Rain = 0
KPG1 201348Z 18007KT 27/16 A2995 RMK A01 T02700163  RH  052%=      5-min Rain = 0
KPG1 201349Z 18006KT 27/17 A2995 RMK A01 T02690168  RH  054%=      5-min Rain = 0
KPG1 201350Z 19005KT 27/17 A2995 RMK A01 T02700167  RH  053%=      5-min Rain = 0
KPG1 201351Z 18007KT 27/17 A2995 RMK A01 T02700168  RH  054%=      5-min Rain = 0
KPG1 201352Z 19006KT 27/17 A2995 RMK A01 T02700166  RH  053%=      5-min Rain = 0
KPG1 201353Z 19007KT 27/17 A2995 RMK A01 T02700165  RH  053%=      5-min Rain = 0
KPG1 201354Z 19007KT 27/17 A2995 RMK A01 T02700165  RH  052%=      5-min Rain = 0
KPG1 201355Z 19007KT 27/17 A2995 RMK A01 T02710168  RH  053%=      5-min Rain = 0
KPG1 201356Z 19006KT 27/17 A2995 RMK A01 T02710168  RH  053%=      5-min Rain = 0
KPG1 201357Z 19006KT 27/17 A2995 RMK A01 T02720169  RH  053%=      5-min Rain = 0
KPG1 201358Z 18007KT 27/17 A2995 RMK A01 T02720166  RH  052%=      5-min Rain = 0
KPG1 201359Z 19007KT 27/17 A2995 RMK A01 T02730169  RH  053%=      5-min Rain = 0
KPG1 201400Z 19007KT 27/17 A2995 RMK A01 T02730167  RH  052%=      5-min Rain = 0
KPG1 201401Z 19009KT 27/17 A2995 RMK A01 T02740165  RH  051%=      5-min Rain = 0
KPG1 201402Z 19009KT 28/17 A2995 RMK A01 T02750167  RH  052%=      5-min Rain = 0
KPG1 201403Z 19007KT 28/17 A2995 RMK A01 T02750167  RH  052%=      5-min Rain = 0
KPG1 201404Z 19007KT 28/17 A2995 RMK A01 T02750169  RH  052%=      5-min Rain = 0
KPG1 201405Z 19007KT 28/17 A2995 RMK A01 T02760170  RH  053%=      5-min Rain = 0
KPG1 201406Z 19007KT 28/17 A2995 RMK A01 T02760170  RH  052%=      5-min Rain = 0
KPG1 201407Z 19008KT 28/17 A2995 RMK A01 T02760170  RH  052%=      5-min Rain = 0
KPG1 201408Z 18007KT 28/18 A2995 RMK A01 T02760175  RH  054%=      5-min Rain = 0
KPG1 201409Z 17009KT 28/17 A2995 RMK A01 T02770168  RH  051%=      5-min Rain = 0
KPG1 201410Z 18007KT 28/17 A2995 RMK A01 T02780166  RH  050%=      5-min Rain = 0
KPG1 201411Z 18008KT 28/17 A2995 RMK A01 T02790167  RH  051%=      5-min Rain = 0
KPG1 201412Z 18008KT 28/17 A2995 RMK A01 T02790167  RH  050%=      5-min Rain = 0
KPG1 201413Z 17009KT 28/17 A2995 RMK A01 T02790166  RH  050%=      5-min Rain = 0
KPG1 201414Z 18009KT 28/17 A2995 RMK A01 T02800166  RH  050%=      5-min Rain = 0
KPG1 201415Z 19007KT 28/17 A2995 RMK A01 T02800167  RH  050%=      5-min Rain = 0
KPG1 201416Z 18007KT 28/17 A2995 RMK A01 T02790169  RH  051%=      5-min Rain = 0
KPG1 201417Z 17009KT 28/17 A2995 RMK A01 T02800166  RH  050%=      5-min Rain = 0
KPG1 201418Z 17008KT 28/17 A2995 RMK A01 T02800167  RH  050%=      5-min Rain = 0
KPG1 201419Z 18008KT 28/17 A2995 RMK A01 T02810169  RH  051%=      5-min Rain = 0
KPG1 201420Z 18008KT 28/17 A2995 RMK A01 T02820168  RH  050%=      5-min Rain = 0
KPG1 201421Z 18010KT 28/16 A2995 RMK A01 T02820164  RH  049%=      5-min Rain = 0
KPG1 201422Z 18008KT 28/16 A2995 RMK A01 T02820164  RH  049%=      5-min Rain = 0
KPG1 201423Z 18008KT 28/17 A2995 RMK A01 T02820167  RH  050%=      5-min Rain = 0
KPG1 201424Z 19007KT 28/17 A2995 RMK A01 T02820168  RH  050%=      5-min Rain = 0
KPG1 201425Z 19007KT 28/17 A2995 RMK A01 T02830171  RH  051%=      5-min Rain = 0
KPG1 201426Z 19006KT 28/17 A2995 RMK A01 T02830169  RH  050%=      5-min Rain = 0
KPG1 201427Z 19007KT 28/17 A2995 RMK A01 T02840168  RH  050%=      5-min Rain = 0
KPG1 201428Z 19009KT 28/17 A2995 RMK A01 T02840166  RH  049%=      5-min Rain = 0
KPG1 201429Z 19008KT 28/16 A2995 RMK A01 T02840164  RH  048%=      5-min Rain = 0
KPG1 201430Z 19008KT 28/16 A2995 RMK A01 T02840164  RH  048%=      5-min Rain = 0
KPG1 201431Z 19008KT 28/16 A2995 RMK A01 T02840163  RH  048%=      5-min Rain = 0
KPG1 201432Z 20006KT 28/17 A2995 RMK A01 T02840169  RH  050%=      5-min Rain = 0
KPG1 201433Z 20007KT 29/17 A2995 RMK A01 T02850171  RH  050%=      5-min Rain = 0
KPG1 201434Z 21009KT 29/17 A2995 RMK A01 T02860165  RH  048%=      5-min Rain = 0
KPG1 201435Z 20010KT 29/16 A2995 RMK A01 T02860160  RH  046%=      5-min Rain = 0
KPG1 201436Z 21008KT 29/16 A2995 RMK A01 T02860160  RH  046%=      5-min Rain = 0
KPG1 201437Z 20009KT 29/16 A2995 RMK A01 T02850161  RH  047%=      5-min Rain = 0
KPG1 201438Z 21009KT 29/16 A2995 RMK A01 T02850163  RH  047%=      5-min Rain = 0
KPG1 201439Z 21008KT 29/16 A2995 RMK A01 T02860164  RH  048%=      5-min Rain = 0
KPG1 201440Z 21009KT 29/16 A2995 RMK A01 T02860163  RH  047%=      5-min Rain = 0
KPG1 201441Z 20009KT 29/16 A2995 RMK A01 T02860162  RH  047%=      5-min Rain = 0
KPG1 201442Z 20009KT 29/16 A2995 RMK A01 T02860163  RH  047%=      5-min Rain = 0
KPG1 201443Z 20008KT 29/16 A2995 RMK A01 T02860162  RH  047%=      5-min Rain = 0
KPG1 201444Z 19009KT 29/17 A2995 RMK A01 T02850165  RH  048%=      5-min Rain = 0
KPG1 201445Z 20010KT 29/16 A2995 RMK A01 T02860163  RH  047%=      5-min Rain = 0
KPG1 201446Z 21009KT 29/16 A2995 RMK A01 T02860162  RH  047%=      5-min Rain = 0
KPG1 201447Z 21008KT 29/16 A2995 RMK A01 T02860163  RH  047%=      5-min Rain = 0
KPG1 201448Z 20008KT 29/16 A2995 RMK A01 T02860163  RH  047%=      5-min Rain = 0
KPG1 201449Z 21007KT 29/17 A2995 RMK A01 T02870166  RH  048%=      5-min Rain = 0
KPG1 201450Z 21010KT 29/17 A2995 RMK A01 T02880169  RH  048%=      5-min Rain = 0
KPG1 201451Z 20009KT 29/17 A2995 RMK A01 T02890165  RH  047%=      5-min Rain = 0
KPG1 201452Z 21009KT 29/17 A2995 RMK A01 T02890167  RH  048%=      5-min Rain = 0
KPG1 201453Z 21008KT 29/17 A2995 RMK A01 T02890165  RH  047%=      5-min Rain = 0
KPG1 201454Z 22008KT 29/17 A2995 RMK A01 T02890168  RH  048%=      5-min Rain = 0
KPG1 201455Z 22008KT 29/17 A2995 RMK A01 T02900165  RH  047%=      5-min Rain = 0
KPG1 201456Z 21008KT 29/16 A2995 RMK A01 T02900164  RH  047%=      5-min Rain = 0
KPG1 201457Z 22007KT 29/17 A2995 RMK A01 T02900166  RH  047%=      5-min Rain = 0
KPG1 201458Z 22008KT 29/17 A2995 RMK A01 T02900166  RH  047%=      5-min Rain = 0
KPG1 201459Z 24007KT 29/17 A2995 RMK A01 T02910165  RH  047%=      5-min Rain = 0
KPG1 201500Z 24008KT 29/16 A2995 RMK A01 T02910162  RH  046%=      5-min Rain = 0
KPG1 201501Z 22007KT 29/16 A2995 RMK A01 T02920164  RH  046%=      5-min Rain = 0
KPG1 201502Z 22008KT 29/16 A2995 RMK A01 T02910163  RH  046%=      5-min Rain = 0
KPG1 201503Z 24008KT 29/16 A2995 RMK A01 T02910163  RH  046%=      5-min Rain = 0
KPG1 201504Z 24008KT 29/17 A2995 RMK A01 T02910166  RH  047%=      5-min Rain = 0
KPG1 201505Z 22007KT 29/16 A2995 RMK A01 T02920164  RH  046%=      5-min Rain = 0
KPG1 201506Z 23007KT 29/17 A2995 RMK A01 T02920166  RH  046%=      5-min Rain = 0
KPG1 201507Z 23007KT 29/17 A2995 RMK A01 T02930165  RH  046%=      5-min Rain = 0
KPG1 201508Z 23007KT 29/16 A2995 RMK A01 T02930162  RH  045%=      5-min Rain = 0
KPG1 201509Z 24006KT 29/16 A2995 RMK A01 T02930163  RH  045%=      5-min Rain = 0
KPG1 201510Z 22006KT 29/16 A2995 RMK A01 T02940161  RH  045%=      5-min Rain = 0
KPG1 201511Z 22007KT 30/17 A2995 RMK A01 T02950165  RH  045%=      5-min Rain = 0
KPG1 201512Z 22007KT 30/16 A2995 RMK A01 T02960157  RH  043%=      5-min Rain = 0
KPG1 201513Z 22007KT 30/16 A2995 RMK A01 T02970155  RH  042%=      5-min Rain = 0
KPG1 201514Z 22007KT 30/15 A2995 RMK A01 T02960153  RH  042%=      5-min Rain = 0
KPG1 201515Z 22006KT 30/16 A2995 RMK A01 T02960156  RH  043%=      5-min Rain = 0
KPG1 201516Z 21006KT 30/16 A2995 RMK A01 T02960158  RH  043%=      5-min Rain = 0
KPG1 201517Z 21007KT 30/16 A2995 RMK A01 T02960158  RH  043%=      5-min Rain = 0
KPG1 201518Z 22007KT 30/16 A2995 RMK A01 T02970156  RH  042%=      5-min Rain = 0
KPG1 201519Z 21008KT 30/15 A2995 RMK A01 T02970154  RH  042%=      5-min Rain = 0
KPG1 201520Z 22007KT 30/15 A2995 RMK A01 T02970154  RH  042%=      5-min Rain = 0
KPG1 201521Z 21005KT 30/16 A2995 RMK A01 T02970155  RH  042%=      5-min Rain = 0
KPG1 201522Z 19005KT 30/15 A2995 RMK A01 T02970154  RH  042%=      5-min Rain = 0
KPG1 201523Z 22007KT 30/16 A2995 RMK A01 T02970158  RH  043%=      5-min Rain = 0
KPG1 201524Z 20007KT 30/16 A2995 RMK A01 T02980155  RH  042%=      5-min Rain = 0
KPG1 201525Z 20006KT 30/16 A2995 RMK A01 T02970156  RH  042%=      5-min Rain = 0
KPG1 201526Z 20006KT 30/16 A2995 RMK A01 T02970158  RH  043%=      5-min Rain = 0
KPG1 201527Z 20006KT 30/16 A2995 RMK A01 T02980156  RH  042%=      5-min Rain = 0
KPG1 201528Z 19005KT 30/16 A2995 RMK A01 T02970160  RH  043%=      5-min Rain = 0
KPG1 201529Z 19006KT 30/16 A2995 RMK A01 T02980158  RH  043%=      5-min Rain = 0
KPG1 201530Z 19006KT 30/16 A2995 RMK A01 T02980155  RH  042%=      5-min Rain = 0
KPG1 201531Z 19005KT 30/16 A2995 RMK A01 T02980160  RH  043%=      5-min Rain = 0
KPG1 201532Z 20006KT 30/16 A2995 RMK A01 T03000164  RH  044%=      5-min Rain = 0
KPG1 201533Z 19005KT 30/16 A2995 RMK A01 T03020157  RH  042%=      5-min Rain = 0
KPG1 201534Z 18005KT 30/16 A2995 RMK A01 T03010163  RH  043%=      5-min Rain = 0
KPG1 201535Z 17005KT 30/16 A2995 RMK A01 T03020159  RH  042%=      5-min Rain = 0
KPG1 201536Z 20006KT 30/16 A2995 RMK A01 T03020160  RH  042%=      5-min Rain = 0
KPG1 201537Z 21005KT 30/16 A2995 RMK A01 T03030158  RH  042%=      5-min Rain = 0
KPG1 201538Z 20005KT 30/17 A2995 RMK A01 T03030166  RH  044%=      5-min Rain = 0
KPG1 201539Z 20005KT 30/16 A2995 RMK A01 T03040161  RH  042%=      5-min Rain = 0
KPG1 201540Z 19007KT 31/17 A2995 RMK A01 T03050165  RH  043%=      5-min Rain = 0
KPG1 201541Z 19007KT 31/16 A2995 RMK A01 T03050163  RH  042%=      5-min Rain = 0
KPG1 201542Z 19007KT 31/16 A2995 RMK A01 T03050164  RH  043%=      5-min Rain = 0
KPG1 201543Z 19007KT 31/16 A2995 RMK A01 T03060163  RH  042%=      5-min Rain = 0
KPG1 201544Z 19006KT 31/16 A2995 RMK A01 T03060162  RH  042%=      5-min Rain = 0
KPG1 201545Z 20005KT 31/17 A2995 RMK A01 T03050167  RH  043%=      5-min Rain = 0
KPG1 201546Z 22005KT 31/17 A2995 RMK A01 T03070168  RH  043%=      5-min Rain = 0
KPG1 201547Z 22007KT 31/17 A2995 RMK A01 T03090165  RH  042%=      5-min Rain = 0
KPG1 201548Z 21007KT 31/16 A2995 RMK A01 T03090163  RH  041%=      5-min Rain = 0
KPG1 201549Z 22006KT 31/17 A2995 RMK A01 T03100167  RH  042%=      5-min Rain = 0
KPG1 201550Z 22006KT 31/16 A2995 RMK A01 T03110160  RH  040%=      5-min Rain = 0
KPG1 201551Z 24006KT 31/16 A2995 RMK A01 T03110164  RH  041%=      5-min Rain = 0
KPG1 201552Z 22006KT 31/16 A2995 RMK A01 T03110163  RH  041%=      5-min Rain = 0
KPG1 201553Z 22005KT 31/16 A2995 RMK A01 T03120163  RH  041%=      5-min Rain = 0
KPG1 201554Z 20006KT 31/16 A2995 RMK A01 T03120162  RH  040%=      5-min Rain = 0
KPG1 201555Z 21007KT 31/17 A2995 RMK A01 T03130165  RH  041%=      5-min Rain = 0
KPG1 201556Z 20006KT 31/17 A2995 RMK A01 T03130166  RH  041%=      5-min Rain = 0
KPG1 201557Z 19008KT 31/16 A2995 RMK A01 T03130164  RH  041%=      5-min Rain = 0
KPG1 201558Z 19007KT 31/16 A2995 RMK A01 T03120164  RH  041%=      5-min Rain = 0
KPG1 201559Z 21007KT 31/17 A2995 RMK A01 T03120168  RH  042%=      5-min Rain = 0
KPG1 201600Z 21006KT 31/17 A2995 RMK A01 T03120165  RH  041%=      5-min Rain = 0
KPG1 201601Z 21006KT 31/16 A2995 RMK A01 T03130164  RH  041%=      5-min Rain = 0
KPG1 201602Z 22008KT 31/16 A2995 RMK A01 T03130159  RH  039%=      5-min Rain = 0
KPG1 201603Z 22007KT 31/16 A2995 RMK A01 T03120156  RH  039%=      5-min Rain = 0
KPG1 201604Z 20005KT 31/16 A2995 RMK A01 T03110163  RH  041%=      5-min Rain = 0
KPG1 201605Z 21007KT 31/16 A2995 RMK A01 T03120164  RH  041%=      5-min Rain = 0
KPG1 201606Z 22007KT 31/16 A2995 RMK A01 T03130159  RH  039%=      5-min Rain = 0
KPG1 201607Z 23006KT 31/16 A2995 RMK A01 T03140161  RH  040%=      5-min Rain = 0
KPG1 201608Z 22004KT 32/16 A2995 RMK A01 T03150164  RH  040%=      5-min Rain = 0
KPG1 201609Z 18006KT 32/16 A2995 RMK A01 T03160163  RH  040%=      5-min Rain = 0
KPG1 201610Z 20005KT 32/17 A2995 RMK A01 T03160167  RH  041%=      5-min Rain = 0
KPG1 201611Z 21006KT 32/16 A2995 RMK A01 T03170160  RH  039%=      5-min Rain = 0
KPG1 201612Z 21005KT 32/16 A2995 RMK A01 T03160159  RH  039%=      5-min Rain = 0
KPG1 201613Z 21005KT 32/16 A2995 RMK A01 T03160160  RH  039%=      5-min Rain = 0
KPG1 201614Z 18005KT 32/17 A2995 RMK A01 T03170171  RH  042%=      5-min Rain = 0
KPG1 201615Z 17006KT 32/17 A2995 RMK A01 T03200168  RH  040%=      5-min Rain = 0
KPG1 201616Z 19005KT 32/17 A2995 RMK A01 T03210166  RH  039%=      5-min Rain = 0
KPG1 201617Z 19006KT 32/16 A2995 RMK A01 T03210164  RH  039%=      5-min Rain = 0
KPG1 201618Z 18006KT 32/17 A2995 RMK A01 T03180166  RH  040%=      5-min Rain = 0
KPG1 201619Z 16004KT 32/17 A2995 RMK A01 T03180167  RH  040%=      5-min Rain = 0
KPG1 201620Z 18005KT 32/17 A2995 RMK A01 T03180167  RH  040%=      5-min Rain = 0
KPG1 201621Z 19005KT 32/17 A2995 RMK A01 T03200169  RH  041%=      5-min Rain = 0
KPG1 201622Z 18005KT 32/17 A2995 RMK A01 T03210165  RH  039%=      5-min Rain = 0
KPG1 201623Z 18007KT 32/17 A2995 RMK A01 T03210167  RH  040%=      5-min Rain = 0
KPG1 201624Z 17008KT 32/16 A2995 RMK A01 T03210164  RH  039%=      5-min Rain = 0
KPG1 201625Z 16007KT 32/16 A2995 RMK A01 T03210163  RH  039%=      5-min Rain = 0
KPG1 201626Z 16007KT 32/16 A2995 RMK A01 T03200164  RH  039%=      5-min Rain = 0
KPG1 201627Z 16006KT 32/16 A2995 RMK A01 T03200162  RH  039%=      5-min Rain = 0
KPG1 201628Z 17008KT 32/17 A2995 RMK A01 T03200167  RH  040%=      5-min Rain = 0
KPG1 201629Z 17008KT 32/16 A2995 RMK A01 T03220161  RH  038%=      5-min Rain = 0
KPG1 201630Z 19005KT 32/16 A2995 RMK A01 T03210161  RH  038%=      5-min Rain = 0
KPG1 201631Z 16005KT 32/17 A2995 RMK A01 T03210165  RH  039%=      5-min Rain = 0
KPG1 201632Z 17007KT 32/17 A2995 RMK A01 T03220166  RH  039%=      5-min Rain = 0
KPG1 201633Z 17006KT 32/17 A2995 RMK A01 T03230165  RH  039%=      5-min Rain = 0
KPG1 201634Z 18006KT 32/16 A2995 RMK A01 T03240162  RH  038%=      5-min Rain = 0
KPG1 201635Z 18005KT 32/17 A2995 RMK A01 T03240166  RH  039%=      5-min Rain = 0
KPG1 201641Z 23007KT 33/16 A2995 RMK A01 T03250161  RH  037%=      5-min Rain = 0
KPG1 201642Z 21006KT 32/16 A2995 RMK A01 T03240161  RH  038%=      5-min Rain = 0
KPG1 201643Z 19007KT 32/16 A2995 RMK A01 T03240161  RH  038%=      5-min Rain = 0
KPG1 201644Z 21007KT 32/16 A2995 RMK A01 T03240159  RH  037%=      5-min Rain = 0
KPG1 201645Z 21008KT 32/16 A2995 RMK A01 T03240157  RH  037%=      5-min Rain = 0
KPG1 201646Z 20008KT 32/16 A2995 RMK A01 T03240158  RH  037%=      5-min Rain = 0
KPG1 201647Z 18008KT 33/16 A2995 RMK A01 T03250159  RH  037%=      5-min Rain = 0
KPG1 201648Z 18007KT 33/16 A2995 RMK A01 T03260158  RH  036%=      5-min Rain = 0
KPG1 201649Z 18007KT 33/16 A2994 RMK A01 T03270162  RH  037%=      5-min Rain = 0
KPG1 201650Z 18007KT 33/16 A2994 RMK A01 T03280159  RH  036%=      5-min Rain = 0
KPG1 201651Z 19005KT 33/16 A2994 RMK A01 T03280159  RH  036%=      5-min Rain = 0
KPG1 201652Z 19005KT 33/17 A2994 RMK A01 T03290165  RH  038%=      5-min Rain = 0
KPG1 201653Z 20006KT 33/16 A2994 RMK A01 T03310161  RH  036%=      5-min Rain = 0
KPG1 201654Z 19005KT 33/16 A2994 RMK A01 T03310157  RH  035%=      5-min Rain = 0
KPG1 201655Z 19005KT 33/16 A2994 RMK A01 T03300159  RH  036%=      5-min Rain = 0
KPG1 201656Z 19005KT 33/16 A2994 RMK A01 T03300159  RH  036%=      5-min Rain = 0
KPG1 201657Z 20006KT 33/16 A2994 RMK A01 T03310158  RH  035%=      5-min Rain = 0
KPG1 201658Z 20005KT 33/16 A2994 RMK A01 T03320160  RH  036%=      5-min Rain = 0
KPG1 201659Z 19006KT 33/16 A2994 RMK A01 T03330156  RH  035%=      5-min Rain = 0
KPG1 201700Z 19006KT 33/16 A2994 RMK A01 T03310161  RH  036%=      5-min Rain = 0
KPG1 201701Z 19007KT 33/16 A2994 RMK A01 T03320162  RH  036%=      5-min Rain = 0
KPG1 201702Z 20007KT 33/16 A2994 RMK A01 T03330160  RH  035%=      5-min Rain = 0
KPG1 201703Z 20006KT 33/16 A2994 RMK A01 T03320158  RH  035%=      5-min Rain = 0
KPG1 201704Z 18008KT 33/16 A2994 RMK A01 T03310158  RH  036%=      5-min Rain = 0
KPG1 201705Z 19006KT 33/15 A2994 RMK A01 T03310153  RH  034%=      5-min Rain = 0
KPG1 201706Z 19005KT 33/15 A2994 RMK A01 T03290154  RH  035%=      5-min Rain = 0
KPG1 201707Z 21004KT 33/16 A2994 RMK A01 T03290155  RH  035%=      5-min Rain = 0
KPG1 201708Z 19004KT 33/16 A2994 RMK A01 T03300155  RH  035%=      5-min Rain = 0
KPG1 201709Z 18007KT 33/16 A2994 RMK A01 T03310159  RH  036%=      5-min Rain = 0
KPG1 201710Z 19007KT 33/16 A2994 RMK A01 T03330155  RH  034%=      5-min Rain = 0
KPG1 201711Z 20007KT 33/16 A2994 RMK A01 T03330156  RH  035%=      5-min Rain = 0
KPG1 201712Z 19007KT 33/16 A2994 RMK A01 T03330159  RH  035%=      5-min Rain = 0
KPG1 201713Z 18008KT 33/16 A2994 RMK A01 T03330157  RH  035%=      5-min Rain = 0
KPG1 201714Z 17010KT 33/16 A2994 RMK A01 T03340160  RH  035%=      5-min Rain = 0
KPG1 201715Z 17010KT 33/16 A2994 RMK A01 T03340157  RH  035%=      5-min Rain = 0
KPG1 201716Z 17007KT 33/16 A2994 RMK A01 T03340159  RH  035%=      5-min Rain = 0
KPG1 201717Z 17007KT 33/16 A2994 RMK A01 T03340160  RH  035%=      5-min Rain = 0
KPG1 201718Z 17007KT 34/16 A2994 RMK A01 T03350157  RH  034%=      5-min Rain = 0
KPG1 201719Z 19006KT 34/15 A2994 RMK A01 T03360153  RH  033%=      5-min Rain = 0
KPG1 201720Z 18005KT 34/15 A2994 RMK A01 T03360154  RH  034%=      5-min Rain = 0
KPG1 201721Z 19005KT 34/15 A2994 RMK A01 T03360154  RH  034%=      5-min Rain = 0
KPG1 201722Z 22007KT 34/15 A2994 RMK A01 T03360153  RH  033%=      5-min Rain = 0
KPG1 201723Z 22006KT 34/15 A2994 RMK A01 T03360154  RH  034%=      5-min Rain = 0
KPG1 201724Z 19007KT 34/15 A2994 RMK A01 T03370153  RH  033%=      5-min Rain = 0
KPG1 201725Z 21006KT 34/14 A2994 RMK A01 T03380142  RH  031%=      5-min Rain = 0
KPG1 201726Z 21005KT 34/14 A2994 RMK A01 T03370142  RH  031%=      5-min Rain = 0
KPG1 201727Z 22007KT 34/15 A2994 RMK A01 T03380147  RH  032%=      5-min Rain = 0
KPG1 201728Z 24008KT 34/14 A2994 RMK A01 T03390143  RH  031%=      5-min Rain = 0
KPG1 201729Z 23007KT 34/15 A2993 RMK A01 T03400150  RH  032%=      5-min Rain = 0
KPG1 201730Z 21004KT 34/15 A2993 RMK A01 T03410146  RH  031%=      5-min Rain = 0
KPG1 201731Z 22004KT 34/15 A2993 RMK A01 T03420147  RH  031%=      5-min Rain = 0
KPG1 201732Z 23006KT 34/15 A2993 RMK A01 T03430145  RH  030%=      5-min Rain = 0
KPG1 201733Z 23004KT 34/14 A2993 RMK A01 T03420142  RH  030%=      5-min Rain = 0
KPG1 201734Z 26002KT 34/15 A2993 RMK A01 T03420146  RH  031%=      5-min Rain = 0
KPG1 201735Z 27003KT 34/14 A2993 RMK A01 T03430142  RH  030%=      5-min Rain = 0
KPG1 201736Z 24004KT 34/14 A2993 RMK A01 T03430144  RH  030%=      5-min Rain = 0
KPG1 201737Z 18005KT 34/15 A2993 RMK A01 T03420148  RH  031%=      5-min Rain = 0
KPG1 201738Z 22007KT 34/15 A2993 RMK A01 T03440149  RH  031%=      5-min Rain = 0
KPG1 201739Z 23008KT 35/14 A2993 RMK A01 T03450140  RH  029%=      5-min Rain = 0
KPG1 201740Z 23009KT 35/14 A2993 RMK A01 T03450137  RH  029%=      5-min Rain = 0
KPG1 201741Z 24010KT 35/14 A2993 RMK A01 T03460139  RH  029%=      5-min Rain = 0
KPG1 201742Z 24009KT 35/14 A2993 RMK A01 T03460135  RH  028%=      5-min Rain = 0
KPG1 201743Z 23007KT 34/13 A2993 RMK A01 T03430134  RH  028%=      5-min Rain = 0
KPG1 201744Z 25005KT 34/14 A2993 RMK A01 T03420136  RH  029%=      5-min Rain = 0
KPG1 201745Z 25006G11KT 34/14 A2993 RMK A01 T03430142  RH  030%=      5-min Rain = 0
KPG1 201746Z 25008KT 34/13 A2993 RMK A01 T03440134  RH  028%=      5-min Rain = 0
KPG1 201747Z 26006KT 34/13 A2993 RMK A01 T03440133  RH  028%=      5-min Rain = 0
KPG1 201748Z 22004KT 34/14 A2993 RMK A01 T03420135  RH  029%=      5-min Rain = 0
KPG1 201749Z 19008KT 34/13 A2993 RMK A01 T03420133  RH  028%=      5-min Rain = 0
KPG1 201750Z 21006KT 34/14 A2993 RMK A01 T03430136  RH  029%=      5-min Rain = 0
KPG1 201751Z 20007KT 35/13 A2993 RMK A01 T03450132  RH  028%=      5-min Rain = 0
KPG1 201752Z 21006KT 35/13 A2993 RMK A01 T03450132  RH  028%=      5-min Rain = 0
KPG1 201753Z 19006KT 35/14 A2993 RMK A01 T03460139  RH  029%=      5-min Rain = 0
KPG1 201754Z 21007KT 35/14 A2993 RMK A01 T03480142  RH  029%=      5-min Rain = 0
KPG1 201755Z 20007KT 35/14 A2993 RMK A01 T03490138  RH  028%=      5-min Rain = 0
KPG1 201756Z 19004KT 35/14 A2993 RMK A01 T03480137  RH  028%=      5-min Rain = 0
KPG1 201757Z 19002KT 35/14 A2993 RMK A01 T03480138  RH  028%=      5-min Rain = 0
KPG1 201758Z 20004KT 35/14 A2993 RMK A01 T03480143  RH  029%=      5-min Rain = 0
KPG1 201759Z 21004KT 35/14 A2993 RMK A01 T03500135  RH  028%=      5-min Rain = 0
KPG1 201800Z 21003KT 35/14 A2993 RMK A01 T03500135  RH  028%=      5-min Rain = 0
KPG1 201801Z 21003KT 35/14 A2993 RMK A01 T03490135  RH  028%=      5-min Rain = 0
KPG1 201802Z 22004KT 35/14 A2992 RMK A01 T03490137  RH  028%=      5-min Rain = 0
KPG1 201803Z 23006KT 35/14 A2992 RMK A01 T03490140  RH  029%=      5-min Rain = 0
KPG1 201804Z 21008KT 35/14 A2992 RMK A01 T03490141  RH  029%=      5-min Rain = 0
KPG1 201805Z 20008KT 35/14 A2992 RMK A01 T03490137  RH  028%=      5-min Rain = 0
KPG1 201806Z 19008KT 35/14 A2992 RMK A01 T03490139  RH  028%=      5-min Rain = 0
KPG1 201807Z 20007KT 35/14 A2992 RMK A01 T03500138  RH  028%=      5-min Rain = 0
KPG1 201808Z 20006KT 35/14 A2992 RMK A01 T03510135  RH  027%=      5-min Rain = 0
KPG1 201809Z 19006KT 35/13 A2992 RMK A01 T03500129  RH  026%=      5-min Rain = 0
KPG1 201810Z 19007KT 35/13 A2992 RMK A01 T03490129  RH  027%=      5-min Rain = 0
KPG1 201811Z 20007KT 35/13 A2992 RMK A01 T03490132  RH  027%=      5-min Rain = 0
KPG1 201812Z 19005KT 35/12 A2992 RMK A01 T03490123  RH  026%=      5-min Rain = 0
KPG1 201813Z 20005KT 35/12 A2992 RMK A01 T03480124  RH  026%=      5-min Rain = 0
KPG1 201814Z 23005KT 35/13 A2992 RMK A01 T03470128  RH  027%=      5-min Rain = 0
KPG1 201815Z 21004KT 35/13 A2992 RMK A01 T03480125  RH  026%=      5-min Rain = 0
KPG1 201816Z 20007KT 35/13 A2992 RMK A01 T03490129  RH  027%=      5-min Rain = 0
KPG1 201817Z 23008KT 35/13 A2992 RMK A01 T03500131  RH  027%=      5-min Rain = 0
KPG1 201818Z 24006KT 35/13 A2992 RMK A01 T03510131  RH  027%=      5-min Rain = 0
KPG1 201819Z 24006KT 35/13 A2992 RMK A01 T03510129  RH  026%=      5-min Rain = 0
KPG1 201820Z 24006KT 35/13 A2992 RMK A01 T03510128  RH  026%=      5-min Rain = 0
KPG1 201821Z 24005KT 35/13 A2992 RMK A01 T03490126  RH  026%=      5-min Rain = 0
KPG1 201822Z 23004KT 35/13 A2992 RMK A01 T03490132  RH  027%=      5-min Rain = 0
KPG1 201823Z 20003KT 35/13 A2992 RMK A01 T03500127  RH  026%=      5-min Rain = 0
KPG1 201824Z 24005KT 35/13 A2992 RMK A01 T03510132  RH  027%=      5-min Rain = 0
KPG1 201825Z 24010KT 35/13 A2992 RMK A01 T03520126  RH  026%=      5-min Rain = 0
KPG1 201826Z 23009KT 35/12 A2992 RMK A01 T03530120  RH  025%=      5-min Rain = 0
KPG1 201827Z 23010KT 35/12 A2992 RMK A01 T03530117  RH  024%=      5-min Rain = 0
KPG1 201828Z 24007KT 35/12 A2992 RMK A01 T03540122  RH  025%=      5-min Rain = 0
KPG1 201829Z 23006KT 35/12 A2992 RMK A01 T03520120  RH  025%=      5-min Rain = 0
KPG1 201830Z 24006KT 35/12 A2992 RMK A01 T03510118  RH  024%=      5-min Rain = 0
KPG1 201831Z 24005KT 35/12 A2992 RMK A01 T03520116  RH  024%=      5-min Rain = 0
KPG1 201832Z 24005KT 35/11 A2992 RMK A01 T03540106  RH  022%=      5-min Rain = 0
KPG1 201833Z 24004KT 36/12 A2992 RMK A01 T03550121  RH  024%=      5-min Rain = 0
KPG1 201834Z 22007KT 36/12 A2992 RMK A01 T03570118  RH  024%=      5-min Rain = 0
KPG1 201835Z 20006KT 36/12 A2992 RMK A01 T03560119  RH  024%=      5-min Rain = 0
KPG1 201836Z 20005KT 36/12 A2992 RMK A01 T03550122  RH  025%=      5-min Rain = 0
KPG1 201837Z 19004KT 35/12 A2991 RMK A01 T03540121  RH  025%=      5-min Rain = 0
KPG1 201838Z 20005KT 36/13 A2991 RMK A01 T03550133  RH  026%=      5-min Rain = 0
KPG1 201839Z 21008KT 36/13 A2991 RMK A01 T03590130  RH  025%=      5-min Rain = 0
KPG1 201840Z 21005KT 36/12 A2991 RMK A01 T03600119  RH  023%=      5-min Rain = 0
KPG1 201841Z 23009KT 36/12 A2991 RMK A01 T03580119  RH  024%=      5-min Rain = 0
KPG1 201842Z 22009KT 36/12 A2991 RMK A01 T03570118  RH  024%=      5-min Rain = 0
KPG1 201843Z 21006KT 36/12 A2991 RMK A01 T03560120  RH  024%=      5-min Rain = 0
KPG1 201844Z 23007KT 36/13 A2991 RMK A01 T03580126  RH  025%=      5-min Rain = 0
KPG1 201845Z 23009KT 36/12 A2991 RMK A01 T03600122  RH  024%=      5-min Rain = 0
KPG1 201846Z 23006KT 36/12 A2991 RMK A01 T03580124  RH  024%=      5-min Rain = 0
KPG1 201847Z 21004KT 36/12 A2991 RMK A01 T03560116  RH  024%=      5-min Rain = 0
KPG1 201848Z 22005KT 36/12 A2991 RMK A01 T03560118  RH  024%=      5-min Rain = 0
KPG1 201849Z 22004KT 36/11 A2991 RMK A01 T03560114  RH  023%=      5-min Rain = 0
KPG1 201850Z 22002KT 36/12 A2991 RMK A01 T03560116  RH  024%=      5-min Rain = 0
KPG1 201851Z 23010KT 36/12 A2991 RMK A01 T03570121  RH  024%=      5-min Rain = 0
KPG1 201852Z 22009KT 36/10 A2991 RMK A01 T03590103  RH  021%=      5-min Rain = 0
KPG1 201853Z 20006KT 36/10 A2991 RMK A01 T03580099  RH  021%=      5-min Rain = 0
KPG1 201854Z 21007KT 36/10 A2991 RMK A01 T03570100  RH  021%=      5-min Rain = 0
KPG1 201855Z 22008KT 36/10 A2991 RMK A01 T03570102  RH  021%=      5-min Rain = 0
KPG1 201856Z 20005KT 36/10 A2991 RMK A01 T03580100  RH  021%=      5-min Rain = 0
KPG1 201857Z 20006KT 36/10 A2991 RMK A01 T03580103  RH  021%=      5-min Rain = 0
KPG1 201858Z 19008KT 36/10 A2991 RMK A01 T03590103  RH  021%=      5-min Rain = 0
KPG1 201859Z 19007KT 36/10 A299 RMK A01 T03590103  RH  021%=      5-min Rain = 0
KPG1 201900Z 19008KT 36/11 A299 RMK A01 T03610108  RH  022%=      5-min Rain = 0
KPG1 201901Z 20008KT 36/11 A299 RMK A01 T03620111  RH  022%=      5-min Rain = 0
KPG1 201902Z 20008KT 36/11 A299 RMK A01 T03630111  RH  022%=      5-min Rain = 0
KPG1 201903Z 19007KT 36/11 A299 RMK A01 T03630109  RH  022%=      5-min Rain = 0
KPG1 201904Z 20005KT 36/10 A299 RMK A01 T03600102  RH  021%=      5-min Rain = 0
KPG1 201905Z 22005KT 36/11 A299 RMK A01 T03580113  RH  023%=      5-min Rain = 0
KPG1 201906Z 22007KT 36/12 A299 RMK A01 T03600116  RH  023%=      5-min Rain = 0
KPG1 201907Z 20008KT 36/11 A299 RMK A01 T03610114  RH  023%=      5-min Rain = 0
KPG1 201908Z 20005KT 36/11 A299 RMK A01 T03610108  RH  022%=      5-min Rain = 0
KPG1 201909Z 21004KT 36/12 A299 RMK A01 T03600117  RH  023%=      5-min Rain = 0
KPG1 201910Z 20004KT 36/11 A299 RMK A01 T03620107  RH  021%=      5-min Rain = 0
KPG1 201911Z 21005KT 36/11 A299 RMK A01 T03610110  RH  022%=      5-min Rain = 0
KPG1 201912Z 23005KT 36/11 A299 RMK A01 T03620113  RH  022%=      5-min Rain = 0
KPG1 201913Z 24005KT 36/11 A299 RMK A01 T03640114  RH  022%=      5-min Rain = 0
KPG1 201914Z 21002KT 37/11 A299 RMK A01 T03650106  RH  021%=      5-min Rain = 0
KPG1 201915Z 23002KT 36/10 A299 RMK A01 T03640101  RH  020%=      5-min Rain = 0
KPG1 201916Z 22004KT 36/10 A299 RMK A01 T03640102  RH  020%=      5-min Rain = 0
KPG1 201917Z 24008KT 36/10 A299 RMK A01 T03620101  RH  021%=      5-min Rain = 0
KPG1 201918Z 24006KT 36/11 A299 RMK A01 T03620106  RH  021%=      5-min Rain = 0
KPG1 201919Z 23007KT 36/10 A2989 RMK A01 T03620101  RH  020%=      5-min Rain = 0
KPG1 201920Z 19007KT 36/11 A2989 RMK A01 T03630107  RH  021%=      5-min Rain = 0
KPG1 201921Z 18004KT 37/12 A2989 RMK A01 T03650115  RH  022%=      5-min Rain = 0
KPG1 201922Z 18005KT 37/11 A2989 RMK A01 T03680112  RH  021%=      5-min Rain = 0
KPG1 201923Z 21006G11KT 37/12 A2989 RMK A01 T03690116  RH  022%=      5-min Rain = 0
KPG1 201924Z 23008KT 37/11 A2989 RMK A01 T03690105  RH  020%=      5-min Rain = 0
KPG1 201925Z 22008KT 37/10 A2989 RMK A01 T03670102  RH  020%=      5-min Rain = 0
KPG1 201926Z 23007KT 37/10 A2989 RMK A01 T03670101  RH  020%=      5-min Rain = 0
KPG1 201927Z 20007KT 37/11 A2989 RMK A01 T03660106  RH  021%=      5-min Rain = 0
KPG1 201928Z 19009KT 37/11 A2989 RMK A01 T03680106  RH  021%=      5-min Rain = 0
KPG1 201929Z 20008KT 37/11 A2989 RMK A01 T03670108  RH  021%=      5-min Rain = 0
KPG1 201930Z 20007KT 37/11 A2989 RMK A01 T03660111  RH  021%=      5-min Rain = 0
KPG1 201931Z 19005KT 37/11 A2989 RMK A01 T03670108  RH  021%=      5-min Rain = 0
KPG1 201932Z 20003KT 37/10 A2989 RMK A01 T03660102  RH  020%=      5-min Rain = 0
KPG1 201933Z 19004KT 37/12 A2989 RMK A01 T03650115  RH  022%=      5-min Rain = 0
KPG1 201934Z 19003KT 37/11 A2989 RMK A01 T03670112  RH  022%=      5-min Rain = 0
KPG1 201935Z 20005G10KT 37/11 A2989 RMK A01 T03680108  RH  021%=      5-min Rain = 0
KPG1 201936Z 20008KT 37/11 A2989 RMK A01 T03690113  RH  021%=      5-min Rain = 0
KPG1 201937Z 19008KT 37/10 A2989 RMK A01 T03710103  RH  020%=      5-min Rain = 0
KPG1 201938Z 19006KT 37/11 A2989 RMK A01 T03690106  RH  020%=      5-min Rain = 0
KPG1 201939Z 21005KT 37/10 A2989 RMK A01 T03700102  RH  020%=      5-min Rain = 0
KPG1 201940Z 20003KT 37/10 A2989 RMK A01 T03700098  RH  019%=      5-min Rain = 0
KPG1 201941Z 20004KT 37/10 A2989 RMK A01 T03700101  RH  020%=      5-min Rain = 0
KPG1 201942Z 21005KT 37/10 A2989 RMK A01 T03710099  RH  019%=      5-min Rain = 0
KPG1 201943Z 23008KT 37/11 A2989 RMK A01 T03710108  RH  020%=      5-min Rain = 0
KPG1 201944Z 22009KT 37/10 A2989 RMK A01 T03720102  RH  020%=      5-min Rain = 0
KPG1 201945Z 20006KT 37/10 A2989 RMK A01 T03710104  RH  020%=      5-min Rain = 0
KPG1 201946Z 20007KT 37/10 A2989 RMK A01 T03710104  RH  020%=      5-min Rain = 0
KPG1 201947Z 21005KT 37/10 A2989 RMK A01 T03710103  RH  020%=      5-min Rain = 0
KPG1 201948Z 23008G13KT 37/10 A2989 RMK A01 T03700101  RH  020%=      5-min Rain = 0
KPG1 201949Z 23011KT 37/10 A2989 RMK A01 T03700101  RH  020%=      5-min Rain = 0
KPG1 201950Z 23008KT 37/10 A2989 RMK A01 T03700098  RH  019%=      5-min Rain = 0
KPG1 201951Z 22007KT 37/10 A2989 RMK A01 T03690099  RH  019%=      5-min Rain = 0
KPG1 201952Z 21007KT 37/09 A2989 RMK A01 T03690093  RH  019%=      5-min Rain = 0
KPG1 201953Z 20007KT 37/10 A2989 RMK A01 T03680097  RH  019%=      5-min Rain = 0
KPG1 201954Z 23009KT 37/10 A2989 RMK A01 T03680097  RH  019%=      5-min Rain = 0
KPG1 201955Z 24007KT 37/10 A2988 RMK A01 T03680096  RH  019%=      5-min Rain = 0
KPG1 201956Z 23008KT 37/10 A2988 RMK A01 T03690099  RH  019%=      5-min Rain = 0
KPG1 201957Z 22006KT 37/10 A2988 RMK A01 T03700101  RH  020%=      5-min Rain = 0
KPG1 201958Z 23005KT 37/10 A2988 RMK A01 T03720103  RH  020%=      5-min Rain = 0
KPG1 201959Z 24004KT 37/10 A2988 RMK A01 T03720103  RH  020%=      5-min Rain = 0
KPG1 202000Z 22007KT 37/10 A2988 RMK A01 T03720102  RH  020%=      5-min Rain = 0
KPG1 202001Z 22010KT 37/10 A2988 RMK A01 T03720098  RH  019%=      5-min Rain = 0
KPG1 202002Z 22008KT 37/10 A2988 RMK A01 T03730095  RH  019%=      5-min Rain = 0
KPG1 202003Z 23005KT 37/09 A2988 RMK A01 T03720088  RH  018%=      5-min Rain = 0
KPG1 202004Z 22004KT 37/09 A2988 RMK A01 T03700086  RH  018%=      5-min Rain = 0
KPG1 202005Z 21010KT 37/11 A2988 RMK A01 T03690106  RH  020%=      5-min Rain = 0
KPG1 202006Z 21012KT 37/11 A2988 RMK A01 T03720107  RH  020%=      5-min Rain = 0
KPG1 202007Z 21012KT 37/10 A2988 RMK A01 T03720104  RH  020%=      5-min Rain = 0
KPG1 202008Z 21010KT 37/11 A2988 RMK A01 T03720108  RH  020%=      5-min Rain = 0
KPG1 202009Z 20008KT 37/11 A2988 RMK A01 T03720109  RH  021%=      5-min Rain = 0
KPG1 202010Z 22011KT 37/11 A2988 RMK A01 T03730110  RH  021%=      5-min Rain = 0
KPG1 202011Z 22010KT 37/10 A2988 RMK A01 T03730099  RH  019%=      5-min Rain = 0
KPG1 202012Z 22012KT 37/10 A2988 RMK A01 T03720097  RH  019%=      5-min Rain = 0
KPG1 202013Z 23012KT 37/10 A2988 RMK A01 T03710098  RH  019%=      5-min Rain = 0
KPG1 202014Z 23010KT 37/10 A2988 RMK A01 T03710096  RH  019%=      5-min Rain = 0
KPG1 202015Z 22006KT 37/09 A2988 RMK A01 T03710092  RH  018%=      5-min Rain = 0
KPG1 202016Z 25006KT 37/10 A2988 RMK A01 T03700098  RH  019%=      5-min Rain = 0
KPG1 202017Z 27004KT 37/10 A2988 RMK A01 T03700102  RH  020%=      5-min Rain = 0
KPG1 202018Z 27005KT 37/10 A2988 RMK A01 T03710099  RH  019%=      5-min Rain = 0
KPG1 202019Z 23003KT 37/10 A2987 RMK A01 T03720097  RH  019%=      5-min Rain = 0
KPG1 202020Z 21005KT 37/11 A2987 RMK A01 T03710109  RH  021%=      5-min Rain = 0
KPG1 202021Z 22010KT 38/11 A2987 RMK A01 T03750111  RH  021%=      5-min Rain = 0
KPG1 202022Z 23008KT 38/10 A2987 RMK A01 T03750102  RH  019%=      5-min Rain = 0
KPG1 202023Z 22006KT 37/10 A2987 RMK A01 T03730102  RH  020%=      5-min Rain = 0
KPG1 202024Z 19008KT 37/11 A2987 RMK A01 T03720112  RH  021%=      5-min Rain = 0
KPG1 202025Z 19009KT 37/11 A2987 RMK A01 T03740113  RH  021%=      5-min Rain = 0
KPG1 202026Z 20006KT 37/12 A2987 RMK A01 T03740116  RH  021%=      5-min Rain = 0
KPG1 202027Z 20008KT 38/12 A2987 RMK A01 T03770124  RH  022%=      5-min Rain = 0
KPG1 202028Z 20010KT 38/12 A2987 RMK A01 T03790116  RH  021%=      5-min Rain = 0
KPG1 202029Z 23008KT 38/11 A2987 RMK A01 T03780113  RH  020%=      5-min Rain = 0
KPG1 202030Z 24008KT 38/12 A2987 RMK A01 T03770117  RH  021%=      5-min Rain = 0
KPG1 202031Z 24010KT 38/11 A2987 RMK A01 T03770114  RH  021%=      5-min Rain = 0
KPG1 202032Z 25011KT 38/11 A2987 RMK A01 T03770113  RH  021%=      5-min Rain = 0
KPG1 202033Z 26009KT 38/11 A2987 RMK A01 T03770112  RH  020%=      5-min Rain = 0
KPG1 202034Z 26007KT 38/11 A2987 RMK A01 T03750112  RH  021%=      5-min Rain = 0
KPG1 202035Z 24009KT 37/11 A2987 RMK A01 T03740112  RH  021%=      5-min Rain = 0
KPG1 202036Z 25006KT 37/11 A2987 RMK A01 T03730106  RH  020%=      5-min Rain = 0
KPG1 202037Z 25005G13KT 37/11 A2987 RMK A01 T03720112  RH  021%=      5-min Rain = 0
KPG1 202038Z 24009KT 37/11 A2987 RMK A01 T03720107  RH  020%=      5-min Rain = 0
KPG1 202039Z 24008KT 37/11 A2987 RMK A01 T03720108  RH  020%=      5-min Rain = 0
KPG1 202040Z 22008KT 37/11 A2986 RMK A01 T03730109  RH  020%=      5-min Rain = 0
KPG1 202041Z 22008KT 37/11 A2986 RMK A01 T03740112  RH  021%=      5-min Rain = 0
KPG1 202042Z 21009KT 38/11 A2986 RMK A01 T03750106  RH  020%=      5-min Rain = 0
KPG1 202043Z 21007KT 37/11 A2986 RMK A01 T03740106  RH  020%=      5-min Rain = 0
KPG1 202044Z 17004KT 37/11 A2986 RMK A01 T03730108  RH  020%=      5-min Rain = 0
KPG1 202045Z 15004KT 37/11 A2986 RMK A01 T03730109  RH  020%=      5-min Rain = 0
KPG1 202046Z 17003KT 37/11 A2986 RMK A01 T03720109  RH  021%=      5-min Rain = 0
KPG1 202047Z 21005KT 37/11 A2986 RMK A01 T03730113  RH  021%=      5-min Rain = 0
KPG1 202048Z 21006KT 38/11 A2986 RMK A01 T03750105  RH  020%=      5-min Rain = 0
KPG1 202049Z 20004KT 37/11 A2986 RMK A01 T03740105  RH  020%=      5-min Rain = 0
KPG1 202050Z 18004KT 37/11 A2986 RMK A01 T03740109  RH  020%=      5-min Rain = 0
KPG1 202051Z 19004KT 37/10 A2986 RMK A01 T03740103  RH  019%=      5-min Rain = 0
KPG1 202052Z 21003KT 37/10 A2986 RMK A01 T03740102  RH  019%=      5-min Rain = 0
KPG1 202053Z 19004KT 37/11 A2986 RMK A01 T03740110  RH  020%=      5-min Rain = 0
KPG1 202054Z 21006KT 38/11 A2986 RMK A01 T03760114  RH  021%=      5-min Rain = 0
KPG1 202055Z 21007KT 38/11 A2986 RMK A01 T03790113  RH  020%=      5-min Rain = 0
KPG1 202056Z 23009KT 38/12 A2986 RMK A01 T03810118  RH  021%=      5-min Rain = 0
KPG1 202057Z 24012KT 38/12 A2985 RMK A01 T03820117  RH  020%=      5-min Rain = 0
KPG1 202058Z 24010KT 38/11 A2986 RMK A01 T03830112  RH  020%=      5-min Rain = 0
KPG1 202059Z 25005KT 38/11 A2986 RMK A01 T03800107  RH  019%=      5-min Rain = 0
KPG1 202100Z 24006KT 38/11 A2986 RMK A01 T03800110  RH  020%=      5-min Rain = 0
KPG1 202101Z 23006KT 38/11 A2986 RMK A01 T03790108  RH  020%=      5-min Rain = 0
KPG1 202102Z 23003KT 38/10 A2985 RMK A01 T03790104  RH  019%=      5-min Rain = 0
KPG1 202103Z 21006G11KT 38/12 A2985 RMK A01 T03790116  RH  021%=      5-min Rain = 0
KPG1 202104Z 23010KT 38/12 A2985 RMK A01 T03820115  RH  020%=      5-min Rain = 0
KPG1 202105Z 21009KT 38/11 A2985 RMK A01 T03830110  RH  020%=      5-min Rain = 0
KPG1 202106Z 23007KT 38/11 A2985 RMK A01 T03800110  RH  020%=      5-min Rain = 0
KPG1 202107Z 21009KT 38/11 A2985 RMK A01 T03800110  RH  020%=      5-min Rain = 0
KPG1 202108Z 21005G10KT 38/10 A2985 RMK A01 T03790102  RH  019%=      5-min Rain = 0
KPG1 202109Z 21004KT 38/10 A2985 RMK A01 T03770100  RH  019%=      5-min Rain = 0
KPG1 202110Z 19008KT 38/12 A2985 RMK A01 T03780116  RH  021%=      5-min Rain = 0
KPG1 202111Z 21011KT 38/11 A2985 RMK A01 T03790114  RH  020%=      5-min Rain = 0
KPG1 202112Z 20009KT 38/11 A2985 RMK A01 T03800106  RH  019%=      5-min Rain = 0
KPG1 202113Z 19008KT 38/11 A2985 RMK A01 T03780110  RH  020%=      5-min Rain = 0
KPG1 202114Z 19006KT 38/11 A2985 RMK A01 T03780112  RH  020%=      5-min Rain = 0
KPG1 202115Z 19006KT 38/12 A2985 RMK A01 T03790122  RH  022%=      5-min Rain = 0
KPG1 202116Z 16006KT 38/11 A2985 RMK A01 T03820114  RH  020%=      5-min Rain = 0
KPG1 202117Z 16005KT 38/11 A2985 RMK A01 T03830114  RH  020%=      5-min Rain = 0
KPG1 202118Z 15006KT 38/11 A2984 RMK A01 T03820110  RH  020%=      5-min Rain = 0
KPG1 202119Z 16005KT 38/11 A2984 RMK A01 T03800112  RH  020%=      5-min Rain = 0
KPG1 202120Z 19005KT 38/11 A2984 RMK A01 T03800109  RH  020%=      5-min Rain = 0
KPG1 202121Z 20008KT 38/11 A2984 RMK A01 T03790106  RH  019%=      5-min Rain = 0
KPG1 202122Z 20008KT 38/10 A2984 RMK A01 T03790099  RH  019%=      5-min Rain = 0
KPG1 202123Z 22007KT 38/11 A2984 RMK A01 T03790109  RH  020%=      5-min Rain = 0
KPG1 202124Z 24006KT 38/10 A2984 RMK A01 T03810101  RH  019%=      5-min Rain = 0
KPG1 202125Z 23005KT 38/10 A2984 RMK A01 T03800096  RH  018%=      5-min Rain = 0
KPG1 202126Z 22004KT 38/09 A2984 RMK A01 T03790093  RH  018%=      5-min Rain = 0
KPG1 202127Z 23005KT 38/09 A2984 RMK A01 T03780094  RH  018%=      5-min Rain = 0
KPG1 202128Z 23005KT 38/10 A2984 RMK A01 T03790095  RH  018%=      5-min Rain = 0
KPG1 202129Z 25003KT 38/10 A2984 RMK A01 T03800100  RH  018%=      5-min Rain = 0
KPG1 202130Z 23005KT 38/10 A2984 RMK A01 T03810101  RH  019%=      5-min Rain = 0
KPG1 202131Z 24006KT 38/10 A2984 RMK A01 T03820098  RH  018%=      5-min Rain = 0
KPG1 202132Z 23009KT 38/10 A2984 RMK A01 T03820101  RH  019%=      5-min Rain = 0
KPG1 202133Z 22007KT 38/10 A2984 RMK A01 T03820102  RH  019%=      5-min Rain = 0
KPG1 202134Z 23006KT 38/10 A2984 RMK A01 T03820102  RH  019%=      5-min Rain = 0
KPG1 202135Z 23006KT 38/10 A2984 RMK A01 T03820096  RH  018%=      5-min Rain = 0
KPG1 202136Z 22005KT 38/10 A2984 RMK A01 T03830098  RH  018%=      5-min Rain = 0
KPG1 202137Z 18005KT 38/10 A2984 RMK A01 T03820098  RH  018%=      5-min Rain = 0
KPG1 202138Z 21005KT 38/11 A2984 RMK A01 T03830112  RH  020%=      5-min Rain = 0
KPG1 202139Z 24005KT 39/11 A2984 RMK A01 T03850107  RH  019%=      5-min Rain = 0
KPG1 202140Z 24004KT 39/10 A2984 RMK A01 T03860104  RH  018%=      5-min Rain = 0
KPG1 202141Z 17008KT 39/10 A2984 RMK A01 T03850102  RH  018%=      5-min Rain = 0
KPG1 202142Z 16004KT 38/10 A2984 RMK A01 T03820095  RH  018%=      5-min Rain = 0
KPG1 202143Z 17005KT 38/10 A2984 RMK A01 T03800104  RH  019%=      5-min Rain = 0
KPG1 202144Z 18003KT 38/11 A2984 RMK A01 T03800106  RH  019%=      5-min Rain = 0
KPG1 202145Z 18002KT 38/10 A2984 RMK A01 T03810104  RH  019%=      5-min Rain = 0
KPG1 202146Z 21002KT 38/10 A2984 RMK A01 T03830097  RH  018%=      5-min Rain = 0
KPG1 202147Z 25001KT 39/10 A2984 RMK A01 T03850098  RH  018%=      5-min Rain = 0
KPG1 202148Z 27003KT 39/11 A2984 RMK A01 T03860105  RH  018%=      5-min Rain = 0
KPG1 202149Z 29003KT 39/10 A2984 RMK A01 T03870100  RH  018%=      5-min Rain = 0
KPG1 202150Z 25002KT 39/10 A2983 RMK A01 T03870096  RH  017%=      5-min Rain = 0
KPG1 202151Z 13002KT 39/10 A2983 RMK A01 T03870097  RH  018%=      5-min Rain = 0
KPG1 202152Z 12005KT 39/11 A2983 RMK A01 T03870107  RH  019%=      5-min Rain = 0
KPG1 202153Z 13006KT 39/10 A2983 RMK A01 T03850103  RH  018%=      5-min Rain = 0
KPG1 202154Z 15006KT 38/11 A2983 RMK A01 T03830108  RH  019%=      5-min Rain = 0
KPG1 202155Z 14006KT 38/10 A2983 RMK A01 T03820095  RH  018%=      5-min Rain = 0
KPG1 202156Z 14003KT 38/09 A2983 RMK A01 T03800093  RH  018%=      5-min Rain = 0
KPG1 202157Z 18000KT 38/09 A2983 RMK A01 T03800091  RH  017%=      5-min Rain = 0
KPG1 202158Z 15002KT 38/10 A2983 RMK A01 T03810095  RH  018%=      5-min Rain = 0
KPG1 202159Z 17007KT 38/11 A2983 RMK A01 T03840108  RH  019%=      5-min Rain = 0
KPG1 202200Z 16006KT 38/10 A2983 RMK A01 T03840097  RH  018%=      5-min Rain = 0
KPG1 202201Z 20003KT 38/09 A2983 RMK A01 T03830091  RH  017%=      5-min Rain = 0
KPG1 202202Z 17005KT 38/10 A2983 RMK A01 T03820103  RH  019%=      5-min Rain = 0
KPG1 202203Z 18005KT 38/10 A2983 RMK A01 T03840102  RH  018%=      5-min Rain = 0
KPG1 202204Z 18004KT 39/10 A2983 RMK A01 T03850101  RH  018%=      5-min Rain = 0
KPG1 202205Z 20004KT 39/10 A2983 RMK A01 T03850096  RH  018%=      5-min Rain = 0
KPG1 202206Z 16003KT 39/10 A2983 RMK A01 T03850098  RH  018%=      5-min Rain = 0
KPG1 202207Z 15005KT 39/11 A2983 RMK A01 T03860106  RH  019%=      5-min Rain = 0
KPG1 202208Z 16004KT 39/10 A2983 RMK A01 T03860098  RH  018%=      5-min Rain = 0
KPG1 202209Z 21003KT 38/10 A2983 RMK A01 T03840100  RH  018%=      5-min Rain = 0
KPG1 202210Z 23007KT 39/09 A2983 RMK A01 T03850087  RH  017%=      5-min Rain = 0
KPG1 202211Z 21007KT 39/09 A2983 RMK A01 T03860092  RH  017%=      5-min Rain = 0
KPG1 202212Z 22006KT 39/10 A2983 RMK A01 T03880095  RH  017%=      5-min Rain = 0
KPG1 202213Z 23006KT 39/10 A2982 RMK A01 T03910095  RH  017%=      5-min Rain = 0
KPG1 202214Z 21005KT 39/09 A2982 RMK A01 T03910088  RH  016%=      5-min Rain = 0
KPG1 202215Z 23007KT 39/08 A2982 RMK A01 T03910082  RH  015%=      5-min Rain = 0
KPG1 202216Z 22007KT 39/09 A2982 RMK A01 T03890086  RH  016%=      5-min Rain = 0
KPG1 202217Z 22007KT 39/09 A2982 RMK A01 T03890094  RH  017%=      5-min Rain = 0
KPG1 202218Z 21009KT 39/10 A2982 RMK A01 T03920097  RH  017%=      5-min Rain = 0
KPG1 202219Z 20006KT 39/10 A2982 RMK A01 T03920095  RH  017%=      5-min Rain = 0
KPG1 202220Z 21007KT 39/09 A2982 RMK A01 T03910092  RH  017%=      5-min Rain = 0
KPG1 202221Z 16007KT 39/11 A2982 RMK A01 T03900107  RH  018%=      5-min Rain = 0
KPG1 202222Z 15008KT 39/11 A2982 RMK A01 T03870108  RH  019%=      5-min Rain = 0
KPG1 202223Z 16007KT 38/12 A2982 RMK A01 T03840121  RH  021%=      5-min Rain = 0
KPG1 202224Z 18007KT 38/12 A2982 RMK A01 T03840123  RH  021%=      5-min Rain = 0
KPG1 202225Z 16009KT 39/12 A2982 RMK A01 T03850121  RH  021%=      5-min Rain = 0
KPG1 202226Z 17008KT 39/11 A2982 RMK A01 T03850113  RH  020%=      5-min Rain = 0
KPG1 202227Z 17006KT 38/11 A2982 RMK A01 T03820111  RH  020%=      5-min Rain = 0
KPG1 202228Z 13006KT 38/12 A2982 RMK A01 T03810116  RH  020%=      5-min Rain = 0
KPG1 202229Z 13008KT 38/12 A2982 RMK A01 T03810123  RH  021%=      5-min Rain = 0
KPG1 202230Z 16008KT 38/13 A2982 RMK A01 T03810129  RH  022%=      5-min Rain = 0
KPG1 202231Z 15011KT 38/12 A2982 RMK A01 T03820122  RH  021%=      5-min Rain = 0
KPG1 202232Z 17012KT 38/11 A2982 RMK A01 T03810107  RH  019%=      5-min Rain = 0
KPG1 202233Z 17011KT 38/10 A2982 RMK A01 T03810104  RH  019%=      5-min Rain = 0
KPG1 202234Z 17008KT 38/11 A2982 RMK A01 T03810107  RH  019%=      5-min Rain = 0
KPG1 202235Z 16010KT 38/11 A2982 RMK A01 T03820107  RH  019%=      5-min Rain = 0
KPG1 202236Z 16011KT 38/11 A2982 RMK A01 T03820105  RH  019%=      5-min Rain = 0
KPG1 202237Z 17011KT 38/11 A2982 RMK A01 T03820110  RH  020%=      5-min Rain = 0
KPG1 202238Z 18009KT 38/11 A2982 RMK A01 T03830107  RH  019%=      5-min Rain = 0
KPG1 202239Z 18008KT 38/11 A2982 RMK A01 T03830106  RH  019%=      5-min Rain = 0
KPG1 202240Z 18007KT 38/11 A2982 RMK A01 T03830106  RH  019%=      5-min Rain = 0
KPG1 202241Z 18007KT 38/11 A2982 RMK A01 T03830105  RH  019%=      5-min Rain = 0
KPG1 202242Z 17007KT 38/10 A2982 RMK A01 T03830104  RH  019%=      5-min Rain = 0
KPG1 202243Z 18006KT 38/11 A2982 RMK A01 T03820108  RH  019%=      5-min Rain = 0
KPG1 202244Z 15005KT 38/12 A2982 RMK A01 T03830119  RH  021%=      5-min Rain = 0
KPG1 202245Z 17004KT 38/12 A2982 RMK A01 T03840124  RH  021%=      5-min Rain = 0
KPG1 202246Z 14010KT 39/12 A2982 RMK A01 T03860117  RH  020%=      5-min Rain = 0
KPG1 202247Z 17008KT 39/11 A2982 RMK A01 T03850106  RH  019%=      5-min Rain = 0
KPG1 202248Z 14005KT 38/11 A2982 RMK A01 T03830113  RH  020%=      5-min Rain = 0
KPG1 202249Z 16006KT 38/12 A2982 RMK A01 T03820118  RH  021%=      5-min Rain = 0
KPG1 202250Z 17004KT 38/11 A2982 RMK A01 T03820112  RH  020%=      5-min Rain = 0
KPG1 202251Z 18004KT 38/10 A2982 RMK A01 T03830103  RH  019%=      5-min Rain = 0
KPG1 202252Z 16006KT 39/11 A2982 RMK A01 T03850112  RH  020%=      5-min Rain = 0
KPG1 202253Z 15006KT 39/11 A2982 RMK A01 T03850110  RH  019%=      5-min Rain = 0
KPG1 202254Z 15008KT 38/11 A2982 RMK A01 T03830114  RH  020%=      5-min Rain = 0
KPG1 202255Z 15008KT 38/11 A2982 RMK A01 T03810109  RH  020%=      5-min Rain = 0
KPG1 202256Z 16009KT 38/11 A2982 RMK A01 T03800110  RH  020%=      5-min Rain = 0
KPG1 202257Z 15010KT 38/11 A2982 RMK A01 T03800109  RH  020%=      5-min Rain = 0
KPG1 202258Z 15008KT 38/11 A2982 RMK A01 T03800113  RH  020%=      5-min Rain = 0
KPG1 202259Z 16009KT 38/11 A2982 RMK A01 T03800112  RH  020%=      5-min Rain = 0
KPG1 202300Z 16008KT 38/11 A2982 RMK A01 T03800111  RH  020%=      5-min Rain = 0
KPG1 202301Z 17010KT 38/11 A2982 RMK A01 T03790111  RH  020%=      5-min Rain = 0
KPG1 202302Z 18007KT 38/11 A2982 RMK A01 T03800110  RH  020%=      5-min Rain = 0
KPG1 202303Z 19007KT 38/10 A2982 RMK A01 T03800101  RH  019%=      5-min Rain = 0
KPG1 202304Z 18010KT 38/10 A2982 RMK A01 T03810104  RH  019%=      5-min Rain = 0
KPG1 202305Z 17007KT 38/09 A2981 RMK A01 T03820094  RH  018%=      5-min Rain = 0
KPG1 202306Z 18007KT 38/10 A2981 RMK A01 T03820096  RH  018%=      5-min Rain = 0
KPG1 202307Z 17010KT 38/11 A2981 RMK A01 T03810105  RH  019%=      5-min Rain = 0
KPG1 202308Z 16011KT 38/09 A2981 RMK A01 T03820090  RH  017%=      5-min Rain = 0
KPG1 202309Z 16009KT 38/09 A2981 RMK A01 T03810092  RH  017%=      5-min Rain = 0
KPG1 202310Z 16010KT 38/09 A2981 RMK A01 T03800089  RH  017%=      5-min Rain = 0
KPG1 202311Z 15006KT 38/10 A2981 RMK A01 T03790098  RH  018%=      5-min Rain = 0
KPG1 202312Z 15009KT 38/10 A2981 RMK A01 T03800099  RH  018%=      5-min Rain = 0
KPG1 202313Z 18009KT 38/10 A2981 RMK A01 T03800101  RH  019%=      5-min Rain = 0
KPG1 202314Z 16010KT 38/10 A2981 RMK A01 T03800101  RH  019%=      5-min Rain = 0
KPG1 202315Z 15008KT 38/10 A2981 RMK A01 T03800097  RH  018%=      5-min Rain = 0
KPG1 202316Z 15009KT 38/10 A2981 RMK A01 T03800101  RH  019%=      5-min Rain = 0
KPG1 202317Z 16008KT 38/10 A2981 RMK A01 T03800100  RH  018%=      5-min Rain = 0
KPG1 202318Z 17009KT 38/10 A2981 RMK A01 T03790096  RH  018%=      5-min Rain = 0
KPG1 202319Z 18009KT 38/09 A2981 RMK A01 T03790087  RH  017%=      5-min Rain = 0
KPG1 202320Z 17009KT 38/09 A2981 RMK A01 T03790085  RH  017%=      5-min Rain = 0
KPG1 202321Z 18009KT 38/09 A2981 RMK A01 T03790090  RH  017%=      5-min Rain = 0
KPG1 202322Z 18009KT 38/09 A2981 RMK A01 T03790085  RH  017%=      5-min Rain = 0
KPG1 202323Z 18006KT 38/09 A2981 RMK A01 T03790092  RH  018%=      5-min Rain = 0
KPG1 202324Z 17006KT 38/10 A2981 RMK A01 T03780095  RH  018%=      5-min Rain = 0
KPG1 202325Z 18010KT 38/10 A2981 RMK A01 T03780102  RH  019%=      5-min Rain = 0
KPG1 202326Z 17010KT 38/11 A2981 RMK A01 T03790109  RH  020%=      5-min Rain = 0
KPG1 202327Z 17010KT 38/11 A2981 RMK A01 T03790113  RH  020%=      5-min Rain = 0
KPG1 202328Z 15009KT 38/11 A2981 RMK A01 T03780107  RH  020%=      5-min Rain = 0
KPG1 202329Z 15008KT 38/11 A2981 RMK A01 T03760109  RH  020%=      5-min Rain = 0
KPG1 202330Z 14009KT 38/11 A2981 RMK A01 T03750109  RH  020%=      5-min Rain = 0
KPG1 202331Z 14006KT 38/11 A2981 RMK A01 T03750108  RH  020%=      5-min Rain = 0
KPG1 202332Z 16010KT 37/12 A2981 RMK A01 T03740115  RH  021%=      5-min Rain = 0
KPG1 202333Z 15009KT 37/11 A2981 RMK A01 T03740114  RH  021%=      5-min Rain = 0
KPG1 202334Z 15008KT 37/11 A2981 RMK A01 T03740109  RH  020%=      5-min Rain = 0
KPG1 202335Z 15005KT 37/11 A2981 RMK A01 T03740113  RH  021%=      5-min Rain = 0
KPG1 202336Z 15006KT 37/12 A2981 RMK A01 T03740118  RH  022%=      5-min Rain = 0
KPG1 202337Z 16006KT 38/11 A2981 RMK A01 T03750107  RH  020%=      5-min Rain = 0
KPG1 202338Z 16008KT 38/11 A2981 RMK A01 T03750110  RH  020%=      5-min Rain = 0
KPG1 202339Z 16008KT 38/11 A2981 RMK A01 T03750113  RH  021%=      5-min Rain = 0
KPG1 202340Z 15008KT 38/11 A2981 RMK A01 T03750114  RH  021%=      5-min Rain = 0
KPG1 202341Z 14007KT 37/11 A2981 RMK A01 T03740105  RH  020%=      5-min Rain = 0
KPG1 202342Z 15008KT 38/10 A2981 RMK A01 T03750104  RH  020%=      5-min Rain = 0
KPG1 202343Z 16008KT 37/10 A2981 RMK A01 T03740102  RH  019%=      5-min Rain = 0
KPG1 202344Z 15007KT 37/09 A2981 RMK A01 T03740094  RH  018%=      5-min Rain = 0
KPG1 202345Z 17007KT 37/10 A2981 RMK A01 T03740101  RH  019%=      5-min Rain = 0
KPG1 202346Z 14006KT 37/10 A2981 RMK A01 T03740101  RH  019%=      5-min Rain = 0
KPG1 202347Z 13009KT 38/11 A2981 RMK A01 T03750107  RH  020%=      5-min Rain = 0
KPG1 202348Z 13010KT 38/10 A2981 RMK A01 T03750096  RH  019%=      5-min Rain = 0
KPG1 202349Z 13007KT 37/10 A2981 RMK A01 T03740096  RH  019%=      5-min Rain = 0
KPG1 202350Z 13007KT 37/10 A2981 RMK A01 T03730096  RH  019%=      5-min Rain = 0
KPG1 202351Z 15006KT 37/09 A2981 RMK A01 T03730093  RH  018%=      5-min Rain = 0
KPG1 202352Z 15008KT 37/10 A2981 RMK A01 T03730097  RH  019%=      5-min Rain = 0
KPG1 202353Z 16010KT 37/10 A2981 RMK A01 T03730097  RH  019%=      5-min Rain = 0
KPG1 202354Z 15007KT 37/10 A2981 RMK A01 T03740095  RH  018%=      5-min Rain = 0
KPG1 202355Z 12006KT 37/10 A2981 RMK A01 T03740101  RH  019%=      5-min Rain = 0
KPG1 202356Z 12007KT 37/10 A2981 RMK A01 T03740100  RH  019%=      5-min Rain = 0
KPG1 202357Z 12008KT 37/10 A2981 RMK A01 T03740099  RH  019%=      5-min Rain = 0
KPG1 202358Z 13006KT 37/10 A2981 RMK A01 T03740098  RH  019%=      5-min Rain = 0
KPG1 202359Z 13006KT 37/10 A2981 RMK A01 T03740104  RH  020%=      5-min Rain = 0
KPG1 210000Z 14008KT 37/10 A2981 RMK A01 T03740096  RH  019%=      5-min Rain = 0
KPG1 210001Z 13010KT 37/09 A2981 RMK A01 T03740094  RH  018%=      5-min Rain = 0
KPG1 210002Z 14009KT 37/09 A2981 RMK A01 T03740091  RH  018%=      5-min Rain = 0
KPG1 210003Z 15009KT 37/09 A2981 RMK A01 T03740094  RH  018%=      5-min Rain = 0
KPG1 210004Z 16008KT 37/09 A2981 RMK A01 T03740090  RH  018%=      5-min Rain = 0
KPG1 210005Z 14007KT 37/10 A2981 RMK A01 T03740096  RH  019%=      5-min Rain = 0
KPG1 210006Z 14007KT 37/09 A2981 RMK A01 T03740093  RH  018%=      5-min Rain = 0
KPG1 210007Z 14006KT 37/10 A2981 RMK A01 T03740096  RH  019%=      5-min Rain = 0
KPG1 210008Z 14007KT 37/10 A2981 RMK A01 T03740098  RH  019%=      5-min Rain = 0
KPG1 210009Z 14008KT 37/10 A2981 RMK A01 T03740098  RH  019%=      5-min Rain = 0
KPG1 210010Z 14007KT 37/10 A2981 RMK A01 T03740098  RH  019%=      5-min Rain = 0
KPG1 210011Z 14007KT 37/09 A2981 RMK A01 T03740093  RH  018%=      5-min Rain = 0
KPG1 210012Z 13008KT 37/10 A2981 RMK A01 T03740095  RH  018%=      5-min Rain = 0
KPG1 210013Z 12008KT 37/09 A2981 RMK A01 T03740090  RH  018%=      5-min Rain = 0
KPG1 210014Z 13007KT 37/09 A2981 RMK A01 T03730090  RH  018%=      5-min Rain = 0
KPG1 210015Z 12006KT 37/09 A2981 RMK A01 T03730092  RH  018%=      5-min Rain = 0
KPG1 210016Z 12007KT 37/09 A2981 RMK A01 T03730092  RH  018%=      5-min Rain = 0
KPG1 210017Z 12006KT 37/08 A2981 RMK A01 T03740083  RH  017%=      5-min Rain = 0
KPG1 210018Z 11006KT 37/08 A2981 RMK A01 T03740083  RH  017%=      5-min Rain = 0
KPG1 210019Z 12007KT 37/09 A2981 RMK A01 T03740089  RH  018%=      5-min Rain = 0
KPG1 210020Z 13008KT 37/08 A2981 RMK A01 T03740083  RH  017%=      5-min Rain = 0
KPG1 210021Z 12006KT 37/09 A2981 RMK A01 T03740086  RH  017%=      5-min Rain = 0
KPG1 210022Z 13006KT 37/09 A2981 RMK A01 T03740091  RH  018%=      5-min Rain = 0
KPG1 210023Z 14005KT 37/09 A2981 RMK A01 T03740086  RH  017%=      5-min Rain = 0
KPG1 210024Z 13005KT 37/09 A2981 RMK A01 T03740093  RH  018%=      5-min Rain = 0
KPG1 210025Z 14006KT 37/09 A2981 RMK A01 T03740087  RH  018%=      5-min Rain = 0
KPG1 210026Z 14005KT 37/08 A2981 RMK A01 T03740083  RH  017%=      5-min Rain = 0
KPG1 210027Z 13005KT 37/09 A2981 RMK A01 T03740085  RH  017%=      5-min Rain = 0
KPG1 210028Z 13006KT 37/09 A2981 RMK A01 T03740087  RH  018%=      5-min Rain = 0
KPG1 210029Z 12006KT 37/09 A2981 RMK A01 T03740087  RH  018%=      5-min Rain = 0
KPG1 210030Z 12005KT 37/08 A298 RMK A01 T03730083  RH  017%=      5-min Rain = 0
KPG1 210031Z 15004KT 37/08 A298 RMK A01 T03730083  RH  017%=      5-min Rain = 0
KPG1 210032Z 16006KT 37/09 A298 RMK A01 T03730091  RH  018%=      5-min Rain = 0
KPG1 210033Z 13005KT 37/09 A298 RMK A01 T03730087  RH  018%=      5-min Rain = 0
KPG1 210034Z 12005KT 37/09 A298 RMK A01 T03730090  RH  018%=      5-min Rain = 0
KPG1 210035Z 12005KT 37/08 A298 RMK A01 T03730084  RH  017%=      5-min Rain = 0
KPG1 210036Z 11005KT 37/08 A298 RMK A01 T03730081  RH  017%=      5-min Rain = 0
KPG1 210037Z 10005KT 37/09 A298 RMK A01 T03720085  RH  017%=      5-min Rain = 0
KPG1 210038Z 11005KT 37/08 A298 RMK A01 T03730084  RH  017%=      5-min Rain = 0
KPG1 210039Z 11004KT 37/09 A298 RMK A01 T03730088  RH  018%=      5-min Rain = 0
KPG1 210040Z 10003KT 37/09 A298 RMK A01 T03720091  RH  018%=      5-min Rain = 0
KPG1 210041Z 11004KT 37/09 A298 RMK A01 T03720093  RH  018%=      5-min Rain = 0
KPG1 210042Z 11004KT 37/10 A298 RMK A01 T03720095  RH  019%=      5-min Rain = 0
KPG1 210043Z 11004KT 37/10 A298 RMK A01 T03710096  RH  019%=      5-min Rain = 0
KPG1 210044Z 14005KT 37/09 A298 RMK A01 T03710094  RH  019%=      5-min Rain = 0
KPG1 210045Z 13005KT 37/09 A298 RMK A01 T03700089  RH  018%=      5-min Rain = 0
KPG1 210046Z 13004KT 37/09 A298 RMK A01 T03700087  RH  018%=      5-min Rain = 0
KPG1 210047Z 14003KT 37/09 A298 RMK A01 T03710093  RH  019%=      5-min Rain = 0
KPG1 210048Z 16005KT 37/10 A298 RMK A01 T03710098  RH  019%=      5-min Rain = 0
KPG1 210049Z 16006KT 37/10 A298 RMK A01 T03710100  RH  019%=      5-min Rain = 0
KPG1 210050Z 14005KT 37/10 A298 RMK A01 T03700103  RH  020%=      5-min Rain = 0
KPG1 210051Z 13005KT 37/10 A298 RMK A01 T03690102  RH  020%=      5-min Rain = 0
KPG1 210052Z 13005KT 37/10 A298 RMK A01 T03690097  RH  019%=      5-min Rain = 0
KPG1 210053Z 15003KT 37/09 A298 RMK A01 T03690093  RH  019%=      5-min Rain = 0
KPG1 210054Z 13005KT 37/10 A2981 RMK A01 T03690095  RH  019%=      5-min Rain = 0
KPG1 210055Z 11006KT 37/10 A2981 RMK A01 T03680096  RH  019%=      5-min Rain = 0
KPG1 210056Z 12005KT 37/09 A2981 RMK A01 T03680089  RH  018%=      5-min Rain = 0
KPG1 210057Z 14004KT 37/10 A2981 RMK A01 T03670101  RH  020%=      5-min Rain = 0
KPG1 210058Z 14004KT 37/11 A2981 RMK A01 T03670107  RH  021%=      5-min Rain = 0
KPG1 210059Z 13005KT 37/11 A2981 RMK A01 T03660105  RH  021%=      5-min Rain = 0
KPG1 210100Z 13005KT 37/10 A2981 RMK A01 T03650098  RH  020%=      5-min Rain = 0
KPG1 210101Z 12004KT 37/10 A2981 RMK A01 T03660100  RH  020%=      5-min Rain = 0
KPG1 210102Z 14006KT 37/10 A2981 RMK A01 T03650098  RH  020%=      5-min Rain = 0
KPG1 210103Z 14005KT 37/10 A2981 RMK A01 T03650097  RH  020%=      5-min Rain = 0
KPG1 210104Z 13004KT 37/10 A2981 RMK A01 T03660103  RH  020%=      5-min Rain = 0
KPG1 210105Z 13004KT 37/10 A2981 RMK A01 T03650101  RH  020%=      5-min Rain = 0
KPG1 210106Z 13004KT 37/10 A2981 RMK A01 T03650096  RH  019%=      5-min Rain = 0
KPG1 210107Z 14004KT 37/10 A2981 RMK A01 T03650101  RH  020%=      5-min Rain = 0
KPG1 210108Z 13005KT 37/10 A2981 RMK A01 T03650098  RH  020%=      5-min Rain = 0
KPG1 210109Z 14005KT 37/10 A2981 RMK A01 T03650099  RH  020%=      5-min Rain = 0
KPG1 210110Z 14004KT 37/10 A2981 RMK A01 T03650101  RH  020%=      5-min Rain = 0
KPG1 210111Z 14005KT 36/11 A2981 RMK A01 T03640107  RH  021%=      5-min Rain = 0
KPG1 210112Z 15005KT 36/10 A2981 RMK A01 T03620101  RH  020%=      5-min Rain = 0
KPG1 210113Z 14004KT 36/10 A2981 RMK A01 T03620103  RH  021%=      5-min Rain = 0
KPG1 210114Z 13004KT 36/10 A2981 RMK A01 T03620103  RH  021%=      5-min Rain = 0
KPG1 210115Z 13003KT 36/11 A2981 RMK A01 T03610107  RH  021%=      5-min Rain = 0
KPG1 210116Z 13003KT 36/11 A2981 RMK A01 T03610106  RH  021%=      5-min Rain = 0
KPG1 210117Z 12002KT 36/11 A2981 RMK A01 T03610108  RH  022%=      5-min Rain = 0
KPG1 210118Z 12002KT 36/11 A2981 RMK A01 T03610110  RH  022%=      5-min Rain = 0
KPG1 210119Z 12004KT 36/11 A2981 RMK A01 T03600109  RH  022%=      5-min Rain = 0
KPG1 210120Z 12004KT 36/11 A2981 RMK A01 T03590107  RH  022%=      5-min Rain = 0
KPG1 210121Z 12004KT 36/11 A2981 RMK A01 T03590108  RH  022%=      5-min Rain = 0
KPG1 210122Z 12004KT 36/11 A2981 RMK A01 T03580108  RH  022%=      5-min Rain = 0
KPG1 210123Z 10003KT 36/11 A2981 RMK A01 T03580110  RH  022%=      5-min Rain = 0
KPG1 210124Z 11004KT 36/11 A2981 RMK A01 T03570107  RH  022%=      5-min Rain = 0
KPG1 210125Z 10005KT 36/11 A2981 RMK A01 T03570111  RH  023%=      5-min Rain = 0
KPG1 210126Z 10005KT 36/11 A2981 RMK A01 T03560111  RH  023%=      5-min Rain = 0
KPG1 210127Z 10005KT 36/11 A2981 RMK A01 T03560114  RH  023%=      5-min Rain = 0
KPG1 210128Z 11005KT 36/11 A2981 RMK A01 T03550113  RH  023%=      5-min Rain = 0
KPG1 210129Z 10005KT 36/11 A2981 RMK A01 T03550112  RH  023%=      5-min Rain = 0
KPG1 210130Z 10005KT 35/11 A2981 RMK A01 T03540113  RH  023%=      5-min Rain = 0
KPG1 210131Z 10006KT 35/11 A2981 RMK A01 T03540112  RH  023%=      5-min Rain = 0
KPG1 210132Z 10006KT 35/11 A2981 RMK A01 T03540110  RH  023%=      5-min Rain = 0
KPG1 210133Z 12007KT 35/11 A2981 RMK A01 T03540107  RH  022%=      5-min Rain = 0
KPG1 210134Z 13008KT 36/11 A2981 RMK A01 T03550111  RH  023%=      5-min Rain = 0
KPG1 210135Z 13010KT 35/12 A2981 RMK A01 T03530116  RH  024%=      5-min Rain = 0
KPG1 210136Z 13010KT 35/12 A2981 RMK A01 T03520124  RH  025%=      5-min Rain = 0
KPG1 210137Z 12008KT 35/13 A2981 RMK A01 T03490128  RH  026%=      5-min Rain = 0
KPG1 210138Z 12008KT 35/13 A2981 RMK A01 T03460126  RH  027%=      5-min Rain = 0
KPG1 210139Z 13008KT 35/13 A2981 RMK A01 T03450130  RH  027%=      5-min Rain = 0
KPG1 210140Z 13011KT 34/13 A2981 RMK A01 T03440129  RH  027%=      5-min Rain = 0
KPG1 210141Z 12008KT 34/13 A2981 RMK A01 T03430128  RH  027%=      5-min Rain = 0
KPG1 210142Z 12007KT 34/13 A2981 RMK A01 T03430129  RH  027%=      5-min Rain = 0
KPG1 210143Z 11007KT 34/13 A2981 RMK A01 T03420126  RH  027%=      5-min Rain = 0
KPG1 210144Z 10009KT 34/13 A2981 RMK A01 T03430125  RH  027%=      5-min Rain = 0
KPG1 210145Z 09008KT 34/12 A2981 RMK A01 T03430123  RH  026%=      5-min Rain = 0
KPG1 210146Z 11008KT 34/12 A2981 RMK A01 T03440124  RH  026%=      5-min Rain = 0
KPG1 210147Z 12009KT 34/12 A2981 RMK A01 T03430124  RH  027%=      5-min Rain = 0
KPG1 210148Z 11008KT 34/12 A2981 RMK A01 T03430122  RH  026%=      5-min Rain = 0
KPG1 210149Z 11008KT 34/12 A2981 RMK A01 T03430121  RH  026%=      5-min Rain = 0
KPG1 210150Z 13007KT 34/12 A2981 RMK A01 T03430122  RH  026%=      5-min Rain = 0
KPG1 210151Z 13008G13KT 34/12 A2981 RMK A01 T03410122  RH  027%=      5-min Rain = 0
KPG1 210152Z 12008KT 34/12 A2981 RMK A01 T03400122  RH  027%=      5-min Rain = 0
KPG1 210153Z 11008KT 34/12 A2981 RMK A01 T03390120  RH  027%=      5-min Rain = 0
KPG1 210154Z 11007KT 34/12 A2981 RMK A01 T03390118  RH  026%=      5-min Rain = 0
KPG1 210155Z 11006KT 34/12 A2981 RMK A01 T03390119  RH  026%=      5-min Rain = 0
KPG1 210156Z 10006KT 34/12 A2982 RMK A01 T03390121  RH  027%=      5-min Rain = 0
KPG1 210157Z 11008KT 34/12 A2982 RMK A01 T03380120  RH  027%=      5-min Rain = 0
KPG1 210158Z 11009KT 34/12 A2981 RMK A01 T03370117  RH  026%=      5-min Rain = 0
KPG1 210159Z 11008KT 34/12 A2982 RMK A01 T03370118  RH  026%=      5-min Rain = 0
KPG1 210200Z 11008KT 34/12 A2982 RMK A01 T03370116  RH  026%=      5-min Rain = 0
KPG1 210201Z 11008KT 34/12 A2982 RMK A01 T03370116  RH  026%=      5-min Rain = 0
KPG1 210202Z 10009KT 34/12 A2982 RMK A01 T03380118  RH  026%=      5-min Rain = 0
KPG1 210203Z 11012KT 34/12 A2981 RMK A01 T03370115  RH  026%=      5-min Rain = 0
KPG1 210204Z 11011KT 34/11 A2981 RMK A01 T03390114  RH  026%=      5-min Rain = 0
KPG1 210205Z 12009KT 34/12 A2982 RMK A01 T03390115  RH  026%=      5-min Rain = 0
KPG1 210206Z 12009KT 34/12 A2982 RMK A01 T03380116  RH  026%=      5-min Rain = 0
KPG1 210207Z 12011KT 34/12 A2982 RMK A01 T03370116  RH  026%=      5-min Rain = 0
KPG1 210208Z 12010KT 34/12 A2982 RMK A01 T03370115  RH  026%=      5-min Rain = 0
KPG1 210209Z 12009KT 34/11 A2982 RMK A01 T03370114  RH  026%=      5-min Rain = 0
KPG1 210210Z 12009KT 34/12 A2982 RMK A01 T03370115  RH  026%=      5-min Rain = 0
KPG1 210211Z 12007KT 34/12 A2982 RMK A01 T03380115  RH  026%=      5-min Rain = 0
KPG1 210212Z 12008KT 34/12 A2982 RMK A01 T03370116  RH  026%=      5-min Rain = 0
KPG1 210213Z 12009KT 34/12 A2982 RMK A01 T03360115  RH  026%=      5-min Rain = 0
KPG1 210214Z 12009KT 34/12 A2982 RMK A01 T03360115  RH  026%=      5-min Rain = 0
KPG1 210215Z 12007KT 34/12 A2982 RMK A01 T03360115  RH  026%=      5-min Rain = 0
KPG1 210216Z 13010KT 34/11 A2982 RMK A01 T03360114  RH  026%=      5-min Rain = 0
KPG1 210217Z 12010KT 34/11 A2982 RMK A01 T03370113  RH  026%=      5-min Rain = 0
KPG1 210218Z 13009KT 34/12 A2982 RMK A01 T03380115  RH  026%=      5-min Rain = 0
KPG1 210219Z 12008KT 34/12 A2982 RMK A01 T03370117  RH  026%=      5-min Rain = 0
KPG1 210220Z 12008KT 34/12 A2982 RMK A01 T03360116  RH  026%=      5-min Rain = 0
KPG1 210221Z 12007KT 34/12 A2982 RMK A01 T03350116  RH  026%=      5-min Rain = 0
KPG1 210222Z 13008KT 34/12 A2982 RMK A01 T03350117  RH  027%=      5-min Rain = 0
KPG1 210223Z 12009KT 33/12 A2982 RMK A01 T03340116  RH  027%=      5-min Rain = 0
KPG1 210224Z 12010KT 33/12 A2982 RMK A01 T03340115  RH  026%=      5-min Rain = 0
KPG1 210225Z 12011KT 33/12 A2982 RMK A01 T03340115  RH  026%=      5-min Rain = 0
KPG1 210226Z 12009KT 34/11 A2982 RMK A01 T03350114  RH  026%=      5-min Rain = 0
KPG1 210227Z 12009KT 34/12 A2982 RMK A01 T03360117  RH  026%=      5-min Rain = 0
KPG1 210228Z 13008KT 33/12 A2982 RMK A01 T03340117  RH  027%=      5-min Rain = 0
KPG1 210229Z 13009KT 33/12 A2982 RMK A01 T03340117  RH  027%=      5-min Rain = 0
KPG1 210230Z 13007KT 33/12 A2982 RMK A01 T03320119  RH  027%=      5-min Rain = 0
KPG1 210231Z 13008KT 33/12 A2983 RMK A01 T03310118  RH  027%=      5-min Rain = 0
KPG1 210232Z 12006KT 33/12 A2983 RMK A01 T03300118  RH  027%=      5-min Rain = 0
KPG1 210233Z 12005KT 33/12 A2983 RMK A01 T03300119  RH  028%=      5-min Rain = 0
KPG1 210234Z 11006KT 33/12 A2982 RMK A01 T03290119  RH  028%=      5-min Rain = 0
KPG1 210235Z 12005KT 33/12 A2982 RMK A01 T03280120  RH  028%=      5-min Rain = 0
KPG1 210236Z 12005KT 33/12 A2982 RMK A01 T03270120  RH  028%=      5-min Rain = 0
KPG1 210237Z 12006KT 33/12 A2982 RMK A01 T03260120  RH  028%=      5-min Rain = 0
KPG1 210238Z 12007KT 33/12 A2982 RMK A01 T03260117  RH  028%=      5-min Rain = 0
KPG1 210239Z 12007KT 33/12 A2982 RMK A01 T03280116  RH  028%=      5-min Rain = 0
KPG1 210240Z 12008KT 33/12 A2983 RMK A01 T03290116  RH  027%=      5-min Rain = 0
KPG1 210241Z 13008KT 33/12 A2983 RMK A01 T03300116  RH  027%=      5-min Rain = 0
KPG1 210242Z 13009KT 33/12 A2983 RMK A01 T03300115  RH  027%=      5-min Rain = 0
KPG1 210243Z 13010KT 33/11 A2983 RMK A01 T03310114  RH  027%=      5-min Rain = 0
KPG1 210244Z 13009KT 33/11 A2983 RMK A01 T03320113  RH  026%=      5-min Rain = 0
KPG1 210245Z 13009KT 33/11 A2983 RMK A01 T03330114  RH  026%=      5-min Rain = 0
KPG1 210246Z 12008KT 33/11 A2983 RMK A01 T03330113  RH  026%=      5-min Rain = 0
KPG1 210247Z 12008KT 33/11 A2983 RMK A01 T03330114  RH  026%=      5-min Rain = 0
KPG1 210248Z 12007KT 33/11 A2983 RMK A01 T03330113  RH  026%=      5-min Rain = 0
KPG1 210249Z 12007KT 33/12 A2983 RMK A01 T03330116  RH  027%=      5-min Rain = 0
KPG1 210250Z 12006KT 33/12 A2983 RMK A01 T03330115  RH  026%=      5-min Rain = 0
KPG1 210251Z 12006KT 33/12 A2983 RMK A01 T03320115  RH  027%=      5-min Rain = 0
KPG1 210252Z 12007KT 33/11 A2983 RMK A01 T03320114  RH  027%=      5-min Rain = 0
KPG1 210253Z 12005KT 33/12 A2983 RMK A01 T03310116  RH  027%=      5-min Rain = 0
KPG1 210254Z 13007KT 33/12 A2983 RMK A01 T03300116  RH  027%=      5-min Rain = 0
KPG1 210255Z 15005KT 33/12 A2983 RMK A01 T03290117  RH  027%=      5-min Rain = 0
KPG1 210256Z 20006KT 33/12 A2983 RMK A01 T03280124  RH  029%=      5-min Rain = 0
KPG1 210257Z 18008KT 32/13 A2983 RMK A01 T03220130  RH  031%=      5-min Rain = 0
KPG1 210258Z 15007KT 32/13 A2983 RMK A01 T03170128  RH  031%=      5-min Rain = 0
KPG1 210259Z 14007KT 32/13 A2983 RMK A01 T03150126  RH  032%=      5-min Rain = 0
KPG1 210300Z 14005KT 31/13 A2983 RMK A01 T03140126  RH  032%=      5-min Rain = 0
KPG1 210301Z 14006KT 31/13 A2983 RMK A01 T03130126  RH  032%=      5-min Rain = 0
KPG1 210302Z 15007KT 31/13 A2983 RMK A01 T03120125  RH  032%=      5-min Rain = 0
KPG1 210303Z 15006KT 31/13 A2984 RMK A01 T03120126  RH  032%=      5-min Rain = 0
KPG1 210304Z 14007KT 31/12 A2984 RMK A01 T03120124  RH  032%=      5-min Rain = 0
KPG1 210305Z 14006KT 31/12 A2984 RMK A01 T03130123  RH  031%=      5-min Rain = 0
KPG1 210306Z 14008KT 31/12 A2984 RMK A01 T03140122  RH  031%=      5-min Rain = 0
KPG1 210307Z 13006KT 32/12 A2984 RMK A01 T03150122  RH  031%=      5-min Rain = 0
KPG1 210308Z 12004KT 32/13 A2984 RMK A01 T03160125  RH  031%=      5-min Rain = 0
KPG1 210309Z 14006KT 32/13 A2984 RMK A01 T03150125  RH  031%=      5-min Rain = 0
KPG1 210310Z 14007KT 31/13 A2984 RMK A01 T03140126  RH  032%=      5-min Rain = 0
KPG1 210311Z 15006KT 31/13 A2984 RMK A01 T03140126  RH  032%=      5-min Rain = 0
KPG1 210312Z 17004KT 31/13 A2984 RMK A01 T03130127  RH  032%=      5-min Rain = 0
KPG1 210313Z 17004KT 31/13 A2984 RMK A01 T03120129  RH  033%=      5-min Rain = 0
KPG1 210314Z 14004KT 31/13 A2984 RMK A01 T03100128  RH  033%=      5-min Rain = 0
KPG1 210315Z 14005KT 31/13 A2984 RMK A01 T03100127  RH  033%=      5-min Rain = 0
KPG1 210316Z 15005KT 31/13 A2984 RMK A01 T03100127  RH  033%=      5-min Rain = 0
KPG1 210317Z 14003KT 31/13 A2984 RMK A01 T03110127  RH  033%=      5-min Rain = 0
KPG1 210318Z 12002KT 31/13 A2984 RMK A01 T03110129  RH  033%=      5-min Rain = 0
KPG1 210319Z 11002KT 31/13 A2984 RMK A01 T03100129  RH  033%=      5-min Rain = 0
KPG1 210320Z 11001KT 31/13 A2984 RMK A01 T03100130  RH  033%=      5-min Rain = 0
KPG1 210321Z 15002KT 31/13 A2984 RMK A01 T03090132  RH  034%=      5-min Rain = 0
KPG1 210322Z 17002KT 31/14 A2984 RMK A01 T03090135  RH  035%=      5-min Rain = 0
KPG1 210323Z 15001KT 31/13 A2984 RMK A01 T03070131  RH  034%=      5-min Rain = 0
KPG1 210324Z 14001KT 31/13 A2984 RMK A01 T03060133  RH  035%=      5-min Rain = 0
KPG1 210325Z 15000KT 31/14 A2984 RMK A01 T03060135  RH  035%=      5-min Rain = 0
KPG1 210326Z 00000KT 31/13 A2984 RMK A01 T03050132  RH  035%=      5-min Rain = 0
KPG1 210327Z 00000KT 31/13 A2984 RMK A01 T03050130  RH  034%=      5-min Rain = 0
KPG1 210328Z 13000KT 31/13 A2984 RMK A01 T03050130  RH  034%=      5-min Rain = 0
KPG1 210329Z 17001KT 31/13 A2984 RMK A01 T03050131  RH  035%=      5-min Rain = 0
KPG1 210330Z 22001KT 31/13 A2985 RMK A01 T03050132  RH  035%=      5-min Rain = 0
KPG1 210331Z 17001KT 31/13 A2985 RMK A01 T03050133  RH  035%=      5-min Rain = 0
KPG1 210332Z 19001KT 31/14 A2985 RMK A01 T03050136  RH  036%=      5-min Rain = 0
KPG1 210333Z 18001KT 30/14 A2985 RMK A01 T03030135  RH  036%=      5-min Rain = 0
KPG1 210334Z 23001KT 30/13 A2985 RMK A01 T03030133  RH  035%=      5-min Rain = 0
KPG1 210335Z 27000KT 30/14 A2985 RMK A01 T03030135  RH  036%=      5-min Rain = 0
KPG1 210336Z 21001KT 30/13 A2985 RMK A01 T03030133  RH  035%=      5-min Rain = 0
KPG1 210337Z 23002KT 30/13 A2985 RMK A01 T03040128  RH  034%=      5-min Rain = 0
KPG1 210338Z 20002KT 31/13 A2985 RMK A01 T03060130  RH  034%=      5-min Rain = 0
KPG1 210339Z 19002KT 31/13 A2985 RMK A01 T03070131  RH  034%=      5-min Rain = 0
KPG1 210340Z 20002KT 31/14 A2985 RMK A01 T03070135  RH  035%=      5-min Rain = 0
KPG1 210341Z 22001KT 31/13 A2985 RMK A01 T03070129  RH  034%=      5-min Rain = 0
KPG1 210342Z 24001KT 31/13 A2985 RMK A01 T03070129  RH  034%=      5-min Rain = 0
KPG1 210343Z 20002KT 31/13 A2985 RMK A01 T03080127  RH  033%=      5-min Rain = 0
KPG1 210344Z 19002KT 31/13 A2985 RMK A01 T03090128  RH  033%=      5-min Rain = 0
KPG1 210345Z 23001KT 31/13 A2985 RMK A01 T03090133  RH  034%=      5-min Rain = 0
KPG1 210346Z 20002KT 31/13 A2985 RMK A01 T03090133  RH  034%=      5-min Rain = 0
KPG1 210347Z 23002KT 31/13 A2985 RMK A01 T03080133  RH  034%=      5-min Rain = 0
KPG1 210348Z 19002KT 31/13 A2985 RMK A01 T03070133  RH  035%=      5-min Rain = 0
KPG1 210349Z 19003KT 31/13 A2985 RMK A01 T03060132  RH  034%=      5-min Rain = 0
KPG1 210350Z 18004KT 31/13 A2985 RMK A01 T03060133  RH  035%=      5-min Rain = 0
KPG1 210351Z 19004KT 31/14 A2985 RMK A01 T03060135  RH  035%=      5-min Rain = 0
KPG1 210352Z 19004KT 31/13 A2986 RMK A01 T03050131  RH  034%=      5-min Rain = 0
KPG1 210353Z 22002KT 31/13 A2986 RMK A01 T03060134  RH  035%=      5-min Rain = 0
KPG1 210354Z 23003KT 31/14 A2986 RMK A01 T03050137  RH  036%=      5-min Rain = 0
KPG1 210355Z 23002KT 30/14 A2986 RMK A01 T03040137  RH  036%=      5-min Rain = 0
KPG1 210356Z 24001KT 30/13 A2986 RMK A01 T03030134  RH  036%=      5-min Rain = 0
KPG1 210357Z 21001KT 30/13 A2986 RMK A01 T03020130  RH  035%=      5-min Rain = 0
KPG1 210358Z 21001KT 30/13 A2986 RMK A01 T03020130  RH  035%=      5-min Rain = 0
KPG1 210359Z 21002KT 30/13 A2986 RMK A01 T03030130  RH  035%=      5-min Rain = 0
KPG1 210400Z 20001KT 30/13 A2986 RMK A01 T03030131  RH  035%=      5-min Rain = 0
KPG1 210401Z 16001KT 30/13 A2986 RMK A01 T03030131  RH  035%=      5-min Rain = 0
KPG1 210402Z 15000KT 30/13 A2986 RMK A01 T03040129  RH  034%=      5-min Rain = 0
KPG1 210403Z 19001KT 30/13 A2986 RMK A01 T03040134  RH  035%=      5-min Rain = 0
KPG1 210404Z 19002KT 30/14 A2986 RMK A01 T03030137  RH  036%=      5-min Rain = 0
KPG1 210405Z 15001KT 30/13 A2986 RMK A01 T03020131  RH  035%=      5-min Rain = 0
KPG1 210406Z 18001KT 30/13 A2986 RMK A01 T03020130  RH  035%=      5-min Rain = 0
KPG1 210407Z 21001KT 30/13 A2986 RMK A01 T03020130  RH  035%=      5-min Rain = 0
KPG1 210408Z 18002KT 30/13 A2986 RMK A01 T03020128  RH  034%=      5-min Rain = 0
KPG1 210409Z 16002KT 30/13 A2986 RMK A01 T03030129  RH  034%=      5-min Rain = 0
KPG1 210410Z 14002KT 30/13 A2986 RMK A01 T03040128  RH  034%=      5-min Rain = 0
KPG1 210411Z 06001KT 30/13 A2986 RMK A01 T03040130  RH  034%=      5-min Rain = 0
KPG1 210412Z 11002KT 30/13 A2986 RMK A01 T03040127  RH  034%=      5-min Rain = 0
KPG1 210413Z 12003KT 31/13 A2986 RMK A01 T03050126  RH  033%=      5-min Rain = 0
KPG1 210414Z 12005KT 31/13 A2986 RMK A01 T03050127  RH  034%=      5-min Rain = 0
KPG1 210415Z 13007KT 31/13 A2986 RMK A01 T03060125  RH  033%=      5-min Rain = 0
KPG1 210416Z 13007KT 31/12 A2986 RMK A01 T03060123  RH  033%=      5-min Rain = 0
KPG1 210417Z 12007KT 31/13 A2986 RMK A01 T03070125  RH  033%=      5-min Rain = 0
KPG1 210418Z 12006KT 31/12 A2986 RMK A01 T03070124  RH  032%=      5-min Rain = 0
KPG1 210419Z 12005KT 31/12 A2986 RMK A01 T03080124  RH  032%=      5-min Rain = 0
KPG1 210420Z 12004KT 31/13 A2986 RMK A01 T03080125  RH  033%=      5-min Rain = 0
KPG1 210421Z 12004KT 31/13 A2986 RMK A01 T03080125  RH  033%=      5-min Rain = 0
KPG1 210422Z 12005KT 31/13 A2986 RMK A01 T03070125  RH  033%=      5-min Rain = 0
KPG1 210423Z 11004KT 31/12 A2986 RMK A01 T03070124  RH  033%=      5-min Rain = 0
KPG1 210424Z 12004KT 31/13 A2986 RMK A01 T03070127  RH  033%=      5-min Rain = 0
KPG1 210425Z 11006KT 31/12 A2986 RMK A01 T03060124  RH  033%=      5-min Rain = 0
KPG1 210426Z 12006KT 31/12 A2986 RMK A01 T03060123  RH  032%=      5-min Rain = 0
KPG1 210427Z 13006KT 31/12 A2986 RMK A01 T03070124  RH  032%=      5-min Rain = 0
KPG1 210428Z 11006KT 31/12 A2986 RMK A01 T03070122  RH  032%=      5-min Rain = 0
KPG1 210429Z 12004KT 31/12 A2986 RMK A01 T03080124  RH  032%=      5-min Rain = 0
KPG1 210430Z 12004KT 31/12 A2986 RMK A01 T03080124  RH  032%=      5-min Rain = 0
KPG1 210431Z 12006KT 31/12 A2986 RMK A01 T03080123  RH  032%=      5-min Rain = 0
KPG1 210432Z 12006KT 31/12 A2986 RMK A01 T03080122  RH  032%=      5-min Rain = 0
KPG1 210433Z 12006KT 31/12 A2986 RMK A01 T03080121  RH  032%=      5-min Rain = 0
KPG1 210434Z 12007KT 31/12 A2986 RMK A01 T03090120  RH  031%=      5-min Rain = 0
KPG1 210435Z 12004KT 31/12 A2986 RMK A01 T03090123  RH  032%=      5-min Rain = 0
KPG1 210436Z 11004KT 31/12 A2986 RMK A01 T03080123  RH  032%=      5-min Rain = 0
KPG1 210437Z 13005KT 31/12 A2986 RMK A01 T03070121  RH  032%=      5-min Rain = 0
KPG1 210438Z 13006KT 31/12 A2985 RMK A01 T03070121  RH  032%=      5-min Rain = 0
KPG1 210439Z 13007KT 31/12 A2985 RMK A01 T03070120  RH  032%=      5-min Rain = 0
KPG1 210440Z 12006KT 31/12 A2985 RMK A01 T03080120  RH  032%=      5-min Rain = 0
KPG1 210441Z 13008KT 31/12 A2985 RMK A01 T03080119  RH  031%=      5-min Rain = 0
KPG1 210442Z 13008KT 31/12 A2985 RMK A01 T03090119  RH  031%=      5-min Rain = 0
KPG1 210443Z 13007KT 31/12 A2985 RMK A01 T03090119  RH  031%=      5-min Rain = 0
KPG1 210444Z 13006KT 31/12 A2985 RMK A01 T03090119  RH  031%=      5-min Rain = 0
KPG1 210445Z 14008KT 31/12 A2985 RMK A01 T03090119  RH  031%=      5-min Rain = 0
KPG1 210446Z 14007KT 31/12 A2985 RMK A01 T03090118  RH  031%=      5-min Rain = 0
KPG1 210447Z 14006KT 31/12 A2985 RMK A01 T03100119  RH  031%=      5-min Rain = 0
KPG1 210448Z 14005KT 31/12 A2985 RMK A01 T03090120  RH  031%=      5-min Rain = 0
KPG1 210449Z 14005KT 31/12 A2985 RMK A01 T03090119  RH  031%=      5-min Rain = 0
KPG1 210450Z 13004KT 31/12 A2985 RMK A01 T03090121  RH  032%=      5-min Rain = 0
KPG1 210451Z 14003KT 31/12 A2985 RMK A01 T03090121  RH  032%=      5-min Rain = 0
KPG1 210452Z 13005KT 31/12 A2985 RMK A01 T03080121  RH  032%=      5-min Rain = 0
KPG1 210453Z 13005KT 31/12 A2985 RMK A01 T03070122  RH  032%=      5-min Rain = 0
KPG1 210454Z 14006KT 31/12 A2985 RMK A01 T03070119  RH  032%=      5-min Rain = 0
KPG1 210455Z 13005KT 31/12 A2985 RMK A01 T03070120  RH  032%=      5-min Rain = 0
KPG1 210456Z 13005KT 31/12 A2985 RMK A01 T03070121  RH  032%=      5-min Rain = 0
KPG1 210457Z 14006KT 31/12 A2985 RMK A01 T03070121  RH  032%=      5-min Rain = 0
KPG1 210458Z 14006KT 31/12 A2985 RMK A01 T03070119  RH  032%=      5-min Rain = 0
KPG1 210459Z 13005KT 31/12 A2985 RMK A01 T03070120  RH  032%=      5-min Rain = 0

Page generated in 0.1415 seconds.